M I D A S
Marine Information and Data Acquisition System
Tripno 1127 of the Zeeleeuw from 2006-06-19 06:36:06 to 2006-06-19 17:32:43
Back to CruiseResearch ActivitiesStationsMapUnderway DataData graphs

EquipmentUnitsComment
TimeDGPSUTC
LatitudeDGPSDM.mWGS84
LongitudeDGPSDM.mWGS84
TemperatureSBE03/SBE38deg celciusITS90
ConductivitySBE21S/mITS90
SalinitySBE21 Practical Salinity Units
ChlorophylAChelsea fluorimeterg/lCalibrated in Aceton
Missing or incorrect values are displayed as -999
Sea surface data collected by the RV Zeeleeuw from 2006-06-19 06:36:46 to 2006-06-19 17:43:01
                                                                                    Next 1000 lines
Time Latitude Longitude Temperature Conductivity Salinity ChlorophylA
2006-06-19 06:36:56 51°13.602 2°56.098 20.5877 0.006123 0.033758 4.005486
2006-06-19 06:37:02 51°13.602 2°56.096 20.5679 0.006123 0.033758 3.971777
2006-06-19 06:37:06 51°13.602 2°56.094 20.5918 0.006123 0.033758 4.005486
2006-06-19 06:37:11 51°13.603 2°56.091 20.5929 0.006123 0.033758 3.971777
2006-06-19 06:37:16 51°13.605 2°56.086 20.5751 0.006123 0.033759 4.005486
2006-06-19 06:37:22 51°13.606 2°56.08 20.5982 0.006123 0.033759 3.971777
2006-06-19 06:37:27 51°13.608 2°56.075 20.6082 0.006123 0.033759 3.971777
2006-06-19 06:37:32 51°13.609 2°56.069 20.6039 0.006123 0.033759 3.971777
2006-06-19 06:37:37 51°13.611 2°56.062 20.6051 0.006123 0.033759 4.005486
2006-06-19 06:37:42 51°13.613 2°56.056 20.6088 0.006123 0.033759 3.971777
2006-06-19 06:37:47 51°13.615 2°56.049 20.6103 0.006123 0.033759 3.971777
2006-06-19 06:37:52 51°13.616 2°56.042 20.6098 0.006123 0.033759 3.971777
2006-06-19 06:37:57 51°13.618 2°56.034 20.6162 0.006123 0.033759 3.971777
2006-06-19 06:38:02 51°13.62 2°56.026 20.6267 0.006123 0.033759 3.971777
2006-06-19 06:38:07 51°13.622 2°56.018 20.6189 0.006123 0.033759 4.005486
2006-06-19 06:38:12 51°13.624 2°56.01 20.6196 0.006123 0.03376 3.971777
2006-06-19 06:38:17 51°13.626 2°56.002 20.6226 0.006123 0.03376 3.971777
2006-06-19 06:38:22 51°13.628 2°55.994 20.6194 0.006123 0.03376 3.971777
2006-06-19 06:38:26 51°13.629 2°55.988 20.6173 0.006123 0.03376 3.971777
2006-06-19 06:38:32 51°13.632 2°55.979 20.6178 0.006123 0.03376 4.005486
2006-06-19 06:38:37 51°13.635 2°55.971 20.6139 0.006123 0.03376 4.005486
2006-06-19 06:38:42 51°13.637 2°55.962 20.6126 0.006123 0.03376 4.005486
2006-06-19 06:38:47 51°13.64 2°55.954 20.616 0.006123 0.03376 4.005486
2006-06-19 06:38:52 51°13.642 2°55.946 20.6166 0.006123 0.033761 3.971777
2006-06-19 06:38:57 51°13.645 2°55.937 20.6184 0.006123 0.033761 3.971777
2006-06-19 06:39:02 51°13.647 2°55.929 20.6214 0.006123 0.033761 4.005486
2006-06-19 06:39:07 51°13.65 2°55.92 20.6245 0.006123 0.033761 3.971777
2006-06-19 06:39:12 51°13.652 2°55.911 20.6208 0.006123 0.033761 4.005486
2006-06-19 06:39:17 51°13.654 2°55.902 20.6264 0.006123 0.033761 3.971777
2006-06-19 06:39:22 51°13.657 2°55.893 20.6239 0.006123 0.033761 4.005486
2006-06-19 06:39:27 51°13.659 2°55.884 20.6209 0.006123 0.033761 4.005486
2006-06-19 06:39:32 51°13.662 2°55.875 20.6311 0.006123 0.033761 3.971777
2006-06-19 06:39:37 51°13.665 2°55.866 20.6312 0.006123 0.033761 4.005486
2006-06-19 06:39:42 51°13.668 2°55.857 20.6295 0.006123 0.033762 3.971777
2006-06-19 06:39:47 51°13.671 2°55.848 20.6315 0.006123 0.033762 3.971777
2006-06-19 06:39:52 51°13.674 2°55.839 20.632 0.006123 0.033762 3.971777
2006-06-19 06:39:57 51°13.677 2°55.83 20.6342 0.006123 0.033762 3.971777
2006-06-19 06:40:02 51°13.681 2°55.821 20.6305 0.006123 0.033762 4.005486
2006-06-19 06:40:07 51°13.684 2°55.812 20.6298 0.006123 0.033762 3.971777
2006-06-19 06:40:12 51°13.687 2°55.803 20.631 0.006123 0.033762 3.938067
2006-06-19 06:40:17 51°13.691 2°55.795 20.6324 0.006123 0.033763 4.005486
2006-06-19 06:40:22 51°13.694 2°55.786 20.6273 0.006123 0.033763 3.971777
2006-06-19 06:40:26 51°13.697 2°55.78 20.6397 0.006123 0.033763 3.971777
2006-06-19 06:40:32 51°13.701 2°55.77 20.6407 0.006123 0.033763 4.005486
2006-06-19 06:40:37 51°13.704 2°55.763 20.6411 0.006123 0.033763 3.971777
2006-06-19 06:40:42 51°13.706 2°55.755 20.637 0.006123 0.033763 3.971777
2006-06-19 06:40:46 51°13.708 2°55.75 20.6352 0.006123 0.033763 3.971777
2006-06-19 06:40:52 51°13.711 2°55.742 20.6162 0.006123 0.033763 4.005486
2006-06-19 06:40:57 51°13.713 2°55.736 20.6315 0.006123 0.033763 4.005486
2006-06-19 06:41:02 51°13.714 2°55.731 20.6405 0.006123 0.033764 3.971777
2006-06-19 06:41:06 51°13.715 2°55.728 20.6443 0.006123 0.033764 3.971777
2006-06-19 06:41:10 51°13.716 2°55.725 20.6549 0.006123 0.033764 3.971777
2006-06-19 06:41:16 51°13.717 2°55.722 20.6542 0.006123 0.033764 3.938067
2006-06-19 06:41:22 51°13.717 2°55.721 20.6515 0.006123 0.033764 4.005486
2006-06-19 06:41:26 51°13.718 2°55.72 20.6459 0.006123 0.033764 4.005486
2006-06-19 06:41:31 51°13.718 2°55.72 20.6418 0.006123 0.033764 3.971777
2006-06-19 06:41:36 51°13.719 2°55.72 20.6482 0.006123 0.033764 3.971777
2006-06-19 06:41:41 51°13.72 2°55.721 20.6501 0.006123 0.033764 4.005486
2006-06-19 06:41:46 51°13.72 2°55.722 20.6511 0.006123 0.033765 3.971777
2006-06-19 06:41:52 51°13.721 2°55.723 20.6345 0.006123 0.033765 3.971777
2006-06-19 06:41:56 51°13.722 2°55.724 20.6302 0.006123 0.033765 3.971777
2006-06-19 06:42:00 51°13.723 2°55.725 20.6347 0.006123 0.033765 4.005486
2006-06-19 06:42:06 51°13.724 2°55.726 20.6064 0.006123 0.033766 3.971777
2006-06-19 06:42:09 51°13.725 2°55.726 20.6275 0.006123 0.033766 3.971777
2006-06-19 06:42:16 51°13.725 2°55.727 20.6405 0.006123 0.033766 4.005486
2006-06-19 06:42:21 51°13.725 2°55.726 20.6343 0.006123 0.033766 4.005486
2006-06-19 06:42:26 51°13.725 2°55.726 20.6335 0.006123 0.033766 4.005486
2006-06-19 06:42:32 51°13.724 2°55.726 20.6323 0.006123 0.033766 3.971777
2006-06-19 06:42:36 51°13.723 2°55.725 20.6393 0.006123 0.033766 3.971777
2006-06-19 06:42:41 51°13.722 2°55.724 20.6456 0.006123 0.033766 3.971777
2006-06-19 06:42:46 51°13.721 2°55.723 20.6773 0.006123 0.033767 4.005486
2006-06-19 06:42:51 51°13.719 2°55.721 20.6729 0.006123 0.033767 3.971777
2006-06-19 06:42:57 51°13.716 2°55.719 20.6767 0.006123 0.033767 3.971777
2006-06-19 06:43:02 51°13.715 2°55.718 20.6794 0.006123 0.033767 3.971777
2006-06-19 06:43:07 51°13.714 2°55.717 20.6978 0.006123 0.033767 3.971777
2006-06-19 06:43:12 51°13.714 2°55.716 20.7117 0.006123 0.033768 3.971777
2006-06-19 06:43:17 51°13.715 2°55.717 20.7126 0.006123 0.033767 3.971777
2006-06-19 06:43:22 51°13.717 2°55.716 20.7224 0.006123 0.033767 3.971777
2006-06-19 06:43:26 51°13.719 2°55.717 20.7299 0.006123 0.033767 3.971777
2006-06-19 06:43:32 51°13.724 2°55.716 20.731 0.006123 0.033767 3.971777
2006-06-19 06:43:37 51°13.729 2°55.715 20.7246 0.006123 0.033767 4.005486
2006-06-19 06:43:42 51°13.734 2°55.713 20.7178 0.006123 0.033768 3.971777
2006-06-19 06:43:46 51°13.74 2°55.71 20.6929 0.006123 0.033768 3.971777
2006-06-19 06:43:50 51°13.745 2°55.707 20.6321 0.006123 0.033768 3.971777
2006-06-19 06:43:56 51°13.754 2°55.7 20.5708 0.006123 0.033768 3.971777
2006-06-19 06:44:01 51°13.762 2°55.694 20.5445 0.006123 0.033768 3.971777
2006-06-19 06:44:06 51°13.77 2°55.688 20.5685 0.006123 0.033768 3.971777
2006-06-19 06:44:12 51°13.782 2°55.679 20.5592 0.006123 0.033769 3.971777
2006-06-19 06:44:16 51°13.789 2°55.674 20.5411 0.006123 0.033769 3.971777
2006-06-19 06:44:21 51°13.799 2°55.666 20.5442 0.006123 0.033769 3.971777
2006-06-19 06:44:26 51°13.809 2°55.658 20.5334 0.006123 0.033769 3.971777
2006-06-19 06:44:32 51°13.821 2°55.648 20.5351 0.006123 0.033769 3.971777
2006-06-19 06:44:36 51°13.83 2°55.641 20.5215 0.006123 0.033769 4.005486
2006-06-19 06:44:40 51°13.838 2°55.634 20.532 0.006123 0.033769 3.971777
2006-06-19 06:44:46 51°13.851 2°55.625 20.5309 0.006123 0.033769 4.005486
2006-06-19 06:44:52 51°13.864 2°55.614 20.5443 0.006123 0.033769 3.971777
2006-06-19 06:44:56 51°13.873 2°55.608 20.5618 0.006123 0.033769 3.971777
2006-06-19 06:45:02 51°13.885 2°55.598 20.5769 0.006123 0.03377 3.971777
2006-06-19 06:45:06 51°13.894 2°55.591 20.5824 0.006123 0.03377 4.005486
2006-06-19 06:45:10 51°13.902 2°55.584 20.5701 0.006123 0.03377 3.971777
2006-06-19 06:45:16 51°13.915 2°55.574 20.5543 0.006123 0.03377 3.971777
2006-06-19 06:45:21 51°13.926 2°55.567 20.5634 0.006123 0.03377 3.971777
2006-06-19 06:45:26 51°13.936 2°55.56 20.5838 0.006123 0.03377 3.971777
2006-06-19 06:45:31 51°13.947 2°55.553 20.6228 0.006123 0.03377 3.971777
2006-06-19 06:45:36 51°13.958 2°55.547 20.6216 0.006123 0.03377 3.938067
2006-06-19 06:45:41 51°13.969 2°55.54 20.6281 0.006123 0.033771 4.005486
2006-06-19 06:45:46 51°13.98 2°55.533 20.664 0.006123 0.033771 4.005486
2006-06-19 06:45:49 51°13.987 2°55.529 20.6346 0.006123 0.033771 4.005486
2006-06-19 06:45:56 51°14.002 2°55.518 20.6154 0.006123 0.033771 4.005486
2006-06-19 06:46:01 51°14.012 2°55.511 20.6243 0.006123 0.033771 3.971777
2006-06-19 06:46:06 51°14.022 2°55.503 20.6456 0.006123 0.033771 4.005486
2006-06-19 06:46:10 51°14.03 2°55.498 20.652 0.006123 0.033771 3.971777
2006-06-19 06:46:16 51°14.041 2°55.489 20.6423 0.006123 0.033771 3.971777
2006-06-19 06:46:21 51°14.051 2°55.482 20.6381 0.006123 0.033771 3.971777
2006-06-19 06:46:26 51°14.06 2°55.476 20.6346 0.006123 0.033771 3.971777
2006-06-19 06:46:32 51°14.071 2°55.468 20.6471 0.006123 0.033771 3.971777
2006-06-19 06:46:36 51°14.079 2°55.463 20.6461 0.006123 0.033771 3.971777
2006-06-19 06:46:41 51°14.088 2°55.457 20.684 0.006123 0.033772 3.971777
2006-06-19 06:46:46 51°14.098 2°55.45 20.6856 0.006123 0.033772 4.005486
2006-06-19 06:46:52 51°14.109 2°55.442 20.6823 0.006123 0.033772 3.971777
2006-06-19 06:46:56 51°14.117 2°55.436 20.6545 0.006123 0.033772 3.971777
2006-06-19 06:47:01 51°14.127 2°55.428 20.641 0.006123 0.033772 3.938067
2006-06-19 06:47:06 51°14.137 2°55.42 20.6354 0.006123 0.033772 3.971777
2006-06-19 06:47:12 51°14.149 2°55.411 20.6501 0.006123 0.033772 3.971777
2006-06-19 06:47:16 51°14.157 2°55.404 20.678 0.006123 0.033772 3.971777
2006-06-19 06:47:21 51°14.168 2°55.396 20.6757 0.006123 0.033773 3.971777
2006-06-19 06:47:26 51°14.178 2°55.387 20.7 0.006123 0.033773 3.971777
2006-06-19 06:47:29 51°14.184 2°55.382 20.7048 0.006123 0.033773 3.938067
2006-06-19 06:47:37 51°14.199 2°55.365 20.7054 0.006123 0.033773 3.971777
2006-06-19 06:47:42 51°14.209 2°55.355 20.7041 0.006123 0.033773 4.005486
2006-06-19 06:47:46 51°14.216 2°55.346 20.6987 0.006123 0.033773 4.005486
2006-06-19 06:47:52 51°14.227 2°55.332 20.691 0.006123 0.033774 3.971777
2006-06-19 06:47:56 51°14.235 2°55.322 20.718 0.006123 0.033774 3.971777
2006-06-19 06:48:02 51°14.245 2°55.307 20.7036 0.006123 0.033773 3.971777
2006-06-19 06:48:06 51°14.252 2°55.297 20.6701 0.006123 0.033774 3.971777
2006-06-19 06:48:12 51°14.262 2°55.28 20.6684 0.006123 0.033774 4.005486
2006-06-19 06:48:16 51°14.269 2°55.269 20.6737 0.006123 0.033774 4.005486
2006-06-19 06:48:21 51°14.277 2°55.254 20.6667 0.006123 0.033774 3.971777
2006-06-19 06:48:26 51°14.286 2°55.24 20.6783 0.006123 0.033774 3.971777
2006-06-19 06:48:32 51°14.296 2°55.221 20.692 0.006123 0.033774 3.971777
2006-06-19 06:48:36 51°14.303 2°55.209 20.6612 0.006123 0.033774 3.971777
2006-06-19 06:48:41 51°14.311 2°55.192 20.6744 0.006123 0.033775 3.971777
2006-06-19 06:48:46 51°14.319 2°55.175 20.6445 0.006123 0.033774 3.971777
2006-06-19 06:48:51 51°14.327 2°55.158 20.6304 0.006123 0.033775 4.005486
2006-06-19 06:48:56 51°14.335 2°55.14 20.6365 0.006123 0.033775 4.005486
2006-06-19 06:49:02 51°14.345 2°55.119 20.6348 0.006123 0.033775 3.971777
2006-06-19 06:49:06 51°14.351 2°55.104 20.6892 0.006123 0.033775 3.971777
2006-06-19 06:49:12 51°14.361 2°55.082 20.6801 0.006123 0.033775 3.971777
2006-06-19 06:49:16 51°14.367 2°55.067 20.6784 0.006123 0.033775 4.005486
2006-06-19 06:49:21 51°14.375 2°55.048 20.6422 0.006123 0.033776 3.971777
2006-06-19 06:49:26 51°14.382 2°55.029 20.5711 0.006123 0.033776 3.971777
2006-06-19 06:49:32 51°14.392 2°55.007 20.5617 0.006123 0.033776 3.971777
2006-06-19 06:49:36 51°14.399 2°54.993 20.5952 0.006123 0.033776 3.971777
2006-06-19 06:49:41 51°14.408 2°54.975 20.6296 0.006123 0.033776 3.971777
2006-06-19 06:49:46 51°14.417 2°54.958 20.6353 0.006123 0.033777 3.971777
2006-06-19 06:49:51 51°14.426 2°54.941 20.6606 0.006123 0.033776 3.971777
2006-06-19 06:49:56 51°14.435 2°54.924 20.6709 0.006123 0.033776 3.971777
2006-06-19 06:50:01 51°14.444 2°54.907 20.6903 0.006123 0.033777 4.005486
2006-06-19 06:50:06 51°14.453 2°54.89 20.6974 0.006123 0.033777 3.938067
2006-06-19 06:50:11 51°14.462 2°54.872 20.7193 0.006123 0.033777 4.005486
2006-06-19 06:50:15 51°14.468 2°54.858 20.7137 0.006123 0.033777 3.971777
2006-06-19 06:50:22 51°14.479 2°54.831 20.7014 0.006123 0.033778 3.971777
2006-06-19 06:50:26 51°14.485 2°54.816 20.6194 0.006123 0.033778 3.971777
2006-06-19 06:50:30 51°14.491 2°54.799 20.6272 0.006123 0.033778 3.971777
2006-06-19 06:50:36 51°14.5 2°54.775 20.6092 0.006123 0.033778 3.971777
2006-06-19 06:50:42 51°14.508 2°54.749 20.5955 0.006123 0.033778 3.971777
2006-06-19 06:50:46 51°14.514 2°54.732 20.602 0.006123 0.033779 3.971777
2006-06-19 06:50:51 51°14.521 2°54.71 20.5992 0.006123 0.033779 3.971777
2006-06-19 06:50:56 51°14.528 2°54.687 20.6003 0.006123 0.033779 3.971777
2006-06-19 06:51:01 51°14.534 2°54.665 20.5893 0.006123 0.033779 4.005486
2006-06-19 06:51:06 51°14.541 2°54.642 20.5625 0.006123 0.033779 3.971777
2006-06-19 06:51:12 51°14.549 2°54.614 20.5695 0.006123 0.03378 3.971777
2006-06-19 06:51:16 51°14.554 2°54.596 20.5641 0.006123 0.03378 3.971777
2006-06-19 06:51:21 51°14.562 2°54.573 20.6096 0.006123 0.03378 3.938067
2006-06-19 06:51:26 51°14.569 2°54.55 20.6231 0.006123 0.03378 3.938067
2006-06-19 06:51:31 51°14.576 2°54.527 20.616 0.006123 0.033781 4.005486
2006-06-19 06:51:36 51°14.584 2°54.505 20.6432 0.006123 0.033781 3.971777
2006-06-19 06:51:41 51°14.591 2°54.482 20.6051 0.006123 0.033782 3.971777
2006-06-19 06:51:46 51°14.598 2°54.459 20.6165 0.006123 0.033782 4.005486
2006-06-19 06:51:52 51°14.606 2°54.432 20.6302 0.006123 0.033782 3.971777
2006-06-19 06:51:56 51°14.611 2°54.414 20.6201 0.006123 0.033782 3.971777
2006-06-19 06:52:00 51°14.617 2°54.396 20.6151 0.006123 0.033783 3.971777
2006-06-19 06:52:06 51°14.626 2°54.369 20.6062 0.006123 0.033783 3.971777
2006-06-19 06:52:09 51°14.63 2°54.356 20.6349 0.006123 0.033784 3.971777
2006-06-19 06:52:16 51°14.641 2°54.325 20.6522 0.006123 0.033784 3.938067
2006-06-19 06:52:22 51°14.65 2°54.298 20.6631 0.006123 0.033784 3.971777
2006-06-19 06:52:26 51°14.656 2°54.28 20.6605 0.006123 0.033784 3.971777
2006-06-19 06:52:30 51°14.662 2°54.262 20.6607 0.006123 0.033785 3.971777
2006-06-19 06:52:36 51°14.671 2°54.235 20.6823 0.006123 0.033785 3.971777
2006-06-19 06:52:42 51°14.68 2°54.208 20.6906 0.006123 0.033786 3.971777
2006-06-19 06:52:45 51°14.684 2°54.194 20.6879 0.006123 0.033786 3.971777
2006-06-19 06:52:52 51°14.694 2°54.162 20.6418 0.006123 0.033786 3.971777
2006-06-19 06:52:56 51°14.7 2°54.144 20.6723 0.006123 0.033786 3.971777
2006-06-19 06:53:01 51°14.708 2°54.12 20.6179 0.006123 0.033787 3.971777
2006-06-19 06:53:06 51°14.715 2°54.098 20.6624 0.006123 0.033787 4.005486
2006-06-19 06:53:11 51°14.723 2°54.075 20.6579 0.006123 0.033787 3.971777
2006-06-19 06:53:16 51°14.731 2°54.052 20.6088 0.006123 0.033787 3.971777
2006-06-19 06:53:21 51°14.739 2°54.03 20.6512 0.006123 0.033788 3.971777
2006-06-19 06:53:26 51°14.747 2°54.007 20.6808 0.006123 0.033788 3.971777
2006-06-19 06:53:32 51°14.756 2°53.98 20.703 0.006123 0.033789 3.971777
2006-06-19 06:53:36 51°14.762 2°53.962 20.7062 0.006123 0.033788 3.971777
2006-06-19 06:53:42 51°14.77 2°53.935 20.6943 0.006123 0.033789 3.971777
2006-06-19 06:53:46 51°14.775 2°53.916 20.6783 0.006123 0.03379 3.971777
2006-06-19 06:53:51 51°14.782 2°53.893 20.657 0.006123 0.03379 3.971777
2006-06-19 06:53:56 51°14.789 2°53.87 20.661 0.006123 0.03379 3.971777
2006-06-19 06:54:01 51°14.795 2°53.846 20.6983 0.006123 0.03379 3.971777
2006-06-19 06:54:06 51°14.801 2°53.823 20.676 0.006123 0.033791 3.971777
2006-06-19 06:54:12 51°14.808 2°53.794 20.6767 0.006123 0.033791 3.971777
2006-06-19 06:54:16 51°14.813 2°53.775 20.6964 0.006123 0.033791 3.971777
2006-06-19 06:54:22 51°14.819 2°53.746 20.6635 0.006123 0.033792 3.971777
2006-06-19 06:54:25 51°14.823 2°53.732 20.6727 0.006123 0.033792 3.971777
2006-06-19 06:54:30 51°14.828 2°53.708 20.6748 0.006123 0.033792 3.971777
2006-06-19 06:54:36 51°14.835 2°53.679 20.6594 0.006123 0.033792 3.971777
2006-06-19 06:54:42 51°14.842 2°53.65 20.6619 0.006123 0.033793 3.971777
2006-06-19 06:54:46 51°14.846 2°53.631 20.6564 0.006123 0.033793 3.971777
2006-06-19 06:54:50 51°14.851 2°53.612 20.678 0.006123 0.033794 3.971777
2006-06-19 06:54:56 51°14.858 2°53.583 20.6941 0.006123 0.033794 3.971777
2006-06-19 06:55:02 51°14.865 2°53.554 20.7144 0.006123 0.033794 3.971777
2006-06-19 06:55:06 51°14.869 2°53.535 20.7087 0.006123 0.033795 3.971777
2006-06-19 06:55:09 51°14.872 2°53.52 20.691 0.006123 0.033795 3.971777
2006-06-19 06:55:16 51°14.879 2°53.487 20.6879 0.006123 0.033795 3.971777
2006-06-19 06:55:22 51°14.884 2°53.457 20.6875 0.006123 0.033796 3.938067
2006-06-19 06:55:26 51°14.888 2°53.438 20.6644 0.006123 0.033796 3.938067
2006-06-19 06:55:32 51°14.893 2°53.409 20.6716 0.006123 0.033796 3.971777
2006-06-19 06:55:36 51°14.897 2°53.389 20.6743 0.006123 0.033797 4.005486
2006-06-19 06:55:41 51°14.902 2°53.365 20.7135 0.006123 0.033797 3.971777
2006-06-19 06:55:46 51°14.906 2°53.34 20.7122 0.006123 0.033797 3.938067
2006-06-19 06:55:52 51°14.911 2°53.311 20.7201 0.006123 0.033797 3.971777
2006-06-19 06:55:56 51°14.914 2°53.291 20.7069 0.006123 0.033797 3.971777
2006-06-19 06:56:01 51°14.918 2°53.266 20.6808 0.006123 0.033798 3.971777
2006-06-19 06:56:06 51°14.921 2°53.241 20.6789 0.006123 0.033799 4.005486
2006-06-19 06:56:12 51°14.925 2°53.211 20.6903 0.006123 0.033799 3.971777
2006-06-19 06:56:16 51°14.928 2°53.192 20.6965 0.006123 0.033799 3.971777
2006-06-19 06:56:21 51°14.931 2°53.167 20.6549 0.006123 0.0338 3.938067
2006-06-19 06:56:26 51°14.934 2°53.142 20.6747 0.006123 0.0338 3.938067
2006-06-19 06:56:32 51°14.938 2°53.112 20.6349 0.006123 0.0338 3.971777
2006-06-19 06:56:36 51°14.94 2°53.092 20.6692 0.006123 0.0338 4.005486
2006-06-19 06:56:41 51°14.944 2°53.067 20.6623 0.006123 0.033801 3.971777
2006-06-19 06:56:46 51°14.948 2°53.042 20.64 0.006123 0.033801 3.971777
2006-06-19 06:56:50 51°14.951 2°53.023 20.6754 0.006123 0.033801 3.971777
2006-06-19 06:56:56 51°14.956 2°52.993 20.6924 0.006123 0.033801 3.971777
2006-06-19 06:57:01 51°14.96 2°52.969 20.6957 0.006123 0.033802 3.971777
2006-06-19 06:57:06 51°14.965 2°52.944 20.7002 0.006123 0.033803 3.971777
2006-06-19 06:57:10 51°14.969 2°52.925 20.7223 0.006123 0.033803 3.971777
2006-06-19 06:57:16 51°14.974 2°52.896 20.7408 0.006123 0.033803 3.971777
2006-06-19 06:57:21 51°14.979 2°52.871 20.7299 0.006123 0.033804 3.971777
2006-06-19 06:57:26 51°14.982 2°52.847 20.7289 0.006123 0.033804 3.971777
2006-06-19 06:57:32 51°14.987 2°52.818 20.7274 0.006123 0.033803 3.938067
2006-06-19 06:57:36 51°14.99 2°52.799 20.7289 0.006123 0.033804 3.971777
2006-06-19 06:57:41 51°14.994 2°52.774 20.7215 0.006123 0.033804 3.971777
2006-06-19 06:57:46 51°14.998 2°52.75 20.7101 0.006123 0.033804 3.938067
2006-06-19 06:57:50 51°15 2°52.73 20.7397 0.006123 0.033806 3.971777
2006-06-19 06:57:56 51°15.004 2°52.701 20.7314 0.006123 0.033806 3.971777
2006-06-19 06:58:01 51°15.007 2°52.676 20.7343 0.006123 0.033805 3.971777
2006-06-19 06:58:06 51°15.01 2°52.652 20.6975 0.006123 0.033806 3.971777
2006-06-19 06:58:12 51°15.013 2°52.623 20.6889 0.006123 0.033806 3.971777
2006-06-19 06:58:16 51°15.015 2°52.603 20.7147 0.006123 0.033808 4.005486
2006-06-19 06:58:21 51°15.018 2°52.578 20.7129 0.006123 0.033808 3.938067
2006-06-19 06:58:26 51°15.021 2°52.554 20.7021 0.006123 0.033808 3.938067
2006-06-19 06:58:32 51°15.024 2°52.525 20.7174 0.006123 0.033807 3.971777
2006-06-19 06:58:36 51°15.026 2°52.505 20.7224 0.006123 0.033808 3.971777
2006-06-19 06:58:41 51°15.028 2°52.481 20.7153 0.006123 0.033808 3.971777
2006-06-19 06:58:46 51°15.031 2°52.456 20.7224 0.006019 0.033395 3.971777
2006-06-19 06:58:50 51°15.033 2°52.437 20.7209 0.006019 0.033395 4.005486
2006-06-19 06:58:56 51°15.036 2°52.407 20.7193 0.006019 0.033395 4.005486
2006-06-19 06:59:01 51°15.039 2°52.383 20.7196 0.006123 0.033809 3.971777
2006-06-19 06:59:06 51°15.041 2°52.358 20.7291 0.006123 0.033809 3.938067
2006-06-19 06:59:11 51°15.044 2°52.334 20.7239 0.006123 0.033809 3.971777
2006-06-19 06:59:16 51°15.046 2°52.309 20.7306 0.006123 0.03381 3.938067
2006-06-19 06:59:21 51°15.049 2°52.284 20.7431 0.006123 0.03381 3.971777
2006-06-19 06:59:27 51°15.052 2°52.255 20.7246 0.006123 0.03381 3.971777
2006-06-19 06:59:30 51°15.053 2°52.24 20.6954 0.006123 0.033813 3.971777
2006-06-19 06:59:36 51°15.056 2°52.211 20.6938 0.006123 0.033814 3.971777
2006-06-19 06:59:41 51°15.058 2°52.186 20.6961 0.006123 0.033811 3.971777
2006-06-19 06:59:46 51°15.062 2°52.161 20.7175 0.006123 0.033811 3.938067
2006-06-19 06:59:52 51°15.066 2°52.132 20.6989 0.006123 0.033812 3.971777
2006-06-19 06:59:56 51°15.069 2°52.112 20.7566 0.006123 0.033812 3.971777
2006-06-19 07:00:01 51°15.073 2°52.088 20.7759 0.006123 0.033812 3.971777
2006-06-19 07:00:06 51°15.076 2°52.064 20.7958 0.006123 0.033814 3.971777
2006-06-19 07:00:11 51°15.079 2°52.039 20.7742 0.006123 0.033814 3.971777
2006-06-19 07:00:16 51°15.082 2°52.015 20.7657 0.006123 0.033814 3.971777
2006-06-19 07:00:21 51°15.083 2°51.99 20.7751 0.006123 0.033814 3.938067
2006-06-19 07:00:26 51°15.085 2°51.966 20.769 0.006123 0.033814 3.938067
2006-06-19 07:00:32 51°15.085 2°51.937 20.7422 0.006019 0.033401 3.971777
2006-06-19 07:00:36 51°15.085 2°51.917 20.7412 0.006019 0.033401 4.005486
2006-06-19 07:00:41 51°15.085 2°51.893 20.739 0.006019 0.033402 3.938067
2006-06-19 07:00:46 51°15.085 2°51.869 20.7445 0.006123 0.033814 3.938067
2006-06-19 07:00:50 51°15.085 2°51.85 20.7271 0.006019 0.0334 3.971777
2006-06-19 07:00:56 51°15.084 2°51.821 20.7382 0.006019 0.0334 3.971777
2006-06-19 07:01:01 51°15.083 2°51.796 20.7461 0.006123 0.033814 3.971777
2006-06-19 07:01:06 51°15.082 2°51.772 20.7102 0.006123 0.033815 3.971777
2006-06-19 07:01:10 51°15.081 2°51.753 20.708 0.006019 0.033401 3.938067
2006-06-19 07:01:17 51°15.081 2°51.719 20.7454 0.006019 0.033404 3.971777
2006-06-19 07:01:21 51°15.08 2°51.699 20.7404 0.006019 0.033403 3.971777
2006-06-19 07:01:26 51°15.08 2°51.675 20.718 0.006019 0.033403 3.971777
2006-06-19 07:01:32 51°15.08 2°51.646 20.693 0.006019 0.033402 3.938067
2006-06-19 07:01:36 51°15.08 2°51.626 20.7371 0.006019 0.033405 3.971777
2006-06-19 07:01:41 51°15.081 2°51.601 20.7338 0.006019 0.033406 3.938067
2006-06-19 07:01:46 51°15.083 2°51.577 20.746 0.006019 0.033403 3.971777
2006-06-19 07:01:50 51°15.084 2°51.557 20.7548 0.006019 0.033404 3.971777
2006-06-19 07:01:56 51°15.087 2°51.528 20.7424 0.006019 0.033404 3.971777
2006-06-19 07:02:01 51°15.089 2°51.503 20.752 0.006123 0.033818 3.971777
2006-06-19 07:02:06 51°15.092 2°51.479 20.7469 0.006019 0.033404 3.971777
2006-06-19 07:02:12 51°15.095 2°51.449 20.7385 0.006019 0.033406 3.971777
2006-06-19 07:02:16 51°15.097 2°51.43 20.7511 0.006019 0.033405 4.005486
2006-06-19 07:02:21 51°15.1 2°51.405 20.7718 0.006019 0.033405 3.938067
2006-06-19 07:02:26 51°15.103 2°51.381 20.7688 0.006019 0.033405 3.938067
2006-06-19 07:02:31 51°15.107 2°51.356 20.781 0.006019 0.033407 3.971777
2006-06-19 07:02:36 51°15.111 2°51.332 20.7907 0.006019 0.033407 3.971777
2006-06-19 07:02:41 51°15.114 2°51.308 20.7933 0.006019 0.033406 3.938067
2006-06-19 07:02:46 51°15.117 2°51.283 20.7968 0.006019 0.033407 3.971777
2006-06-19 07:02:50 51°15.12 2°51.264 20.7965 0.006123 0.033821 3.971777
2006-06-19 07:02:56 51°15.123 2°51.234 20.7908 0.006123 0.033821 3.971777
2006-06-19 07:03:01 51°15.126 2°51.209 20.7647 0.006123 0.033821 3.971777
2006-06-19 07:03:06 51°15.129 2°51.185 20.7781 0.006019 0.033408 3.971777
2006-06-19 07:03:12 51°15.133 2°51.156 20.793 0.006019 0.033407 3.938067
2006-06-19 07:03:16 51°15.135 2°51.136 20.8004 0.006123 0.033822 4.005486
2006-06-19 07:03:21 51°15.138 2°51.111 20.7853 0.006123 0.033822 3.971777
2006-06-19 07:03:25 51°15.14 2°51.092 20.7619 0.006123 0.033822 3.971777
2006-06-19 07:03:30 51°15.143 2°51.067 20.7276 0.006019 0.033408 3.971777
2006-06-19 07:03:36 51°15.147 2°51.038 20.7261 0.006019 0.033408 3.971777
2006-06-19 07:03:41 51°15.15 2°51.013 20.7059 0.006019 0.03341 3.938067
2006-06-19 07:03:46 51°15.154 2°50.989 20.7534 0.006019 0.03341 3.971777
2006-06-19 07:03:52 51°15.16 2°50.96 20.7529 0.006019 0.03341 3.938067
2006-06-19 07:03:56 51°15.165 2°50.941 20.788 0.006019 0.03341 3.938067
2006-06-19 07:04:01 51°15.171 2°50.917 20.7912 0.006019 0.03341 3.938067
2006-06-19 07:04:06 51°15.178 2°50.894 20.7915 0.006019 0.03341 3.971777
2006-06-19 07:04:11 51°15.185 2°50.87 20.8001 0.006019 0.03341 3.971777
2006-06-19 07:04:16 51°15.192 2°50.847 20.8093 0.006019 0.033409 3.971777
2006-06-19 07:04:21 51°15.199 2°50.824 20.8285 0.006019 0.03341 3.971777
2006-06-19 07:04:26 51°15.206 2°50.801 20.8063 0.006019 0.03341 3.971777
2006-06-19 07:04:30 51°15.211 2°50.782 20.809 0.006019 0.033411 3.971777
2006-06-19 07:04:36 51°15.219 2°50.754 20.7924 0.006019 0.033411 4.005486
2006-06-19 07:04:40 51°15.224 2°50.735 20.8095 0.006019 0.033411 3.971777
2006-06-19 07:04:46 51°15.232 2°50.707 20.8286 0.006019 0.033411 3.938067
2006-06-19 07:04:52 51°15.24 2°50.679 20.8232 0.006019 0.033411 3.971777
2006-06-19 07:04:56 51°15.245 2°50.66 20.7933 0.006019 0.033411 3.971777
2006-06-19 07:05:02 51°15.252 2°50.631 20.7847 0.006019 0.033411 3.938067
2006-06-19 07:05:06 51°15.257 2°50.612 20.813 0.006019 0.033412 3.971777
2006-06-19 07:05:12 51°15.264 2°50.584 20.8051 0.006019 0.033412 3.971777
2006-06-19 07:05:16 51°15.269 2°50.565 20.7973 0.006019 0.033412 3.971777
2006-06-19 07:05:21 51°15.275 2°50.541 20.7967 0.006019 0.033413 3.971777
2006-06-19 07:05:26 51°15.28 2°50.517 20.8093 0.006019 0.033413 3.971777
2006-06-19 07:05:32 51°15.287 2°50.489 20.8161 0.006019 0.033413 3.938067
2006-06-19 07:05:36 51°15.292 2°50.47 20.8133 0.006019 0.033413 3.971777
2006-06-19 07:05:41 51°15.297 2°50.445 20.8093 0.006019 0.033413 3.971777
2006-06-19 07:05:46 51°15.303 2°50.422 20.8239 0.006019 0.033413 3.971777
2006-06-19 07:05:50 51°15.308 2°50.403 20.804 0.006019 0.033414 4.005486
2006-06-19 07:05:56 51°15.314 2°50.374 20.792 0.006019 0.033414 4.005486
2006-06-19 07:06:01 51°15.32 2°50.35 20.7898 0.006019 0.033414 3.938067
2006-06-19 07:06:06 51°15.325 2°50.326 20.7933 0.006019 0.033414 3.938067
2006-06-19 07:06:11 51°15.331 2°50.302 20.7723 0.006019 0.033415 3.938067
2006-06-19 07:06:16 51°15.337 2°50.278 20.8096 0.006019 0.033415 4.005486
2006-06-19 07:06:21 51°15.344 2°50.255 20.7905 0.006019 0.033415 3.938067
2006-06-19 07:06:26 51°15.35 2°50.231 20.8123 0.006019 0.033415 3.938067
2006-06-19 07:06:32 51°15.358 2°50.203 20.8149 0.006019 0.033415 3.938067
2006-06-19 07:06:36 51°15.363 2°50.184 20.8138 0.006019 0.033415 3.971777
2006-06-19 07:06:42 51°15.372 2°50.156 20.8444 0.006019 0.033416 3.971777
2006-06-19 07:06:45 51°15.376 2°50.142 20.8389 0.006019 0.033415 3.971777
2006-06-19 07:06:50 51°15.382 2°50.119 20.8449 0.006019 0.033416 3.971777
2006-06-19 07:06:56 51°15.39 2°50.091 20.8422 0.006019 0.033416 3.971777
2006-06-19 07:07:00 51°15.395 2°50.072 20.8141 0.006019 0.033416 3.971777
2006-06-19 07:07:06 51°15.402 2°50.044 20.8272 0.006019 0.033417 3.971777
2006-06-19 07:07:11 51°15.408 2°50.021 20.8197 0.006019 0.033417 3.971777
2006-06-19 07:07:16 51°15.414 2°49.997 20.833 0.006019 0.033417 3.971777
2006-06-19 07:07:21 51°15.42 2°49.973 20.7709 0.006019 0.033418 3.938067
2006-06-19 07:07:26 51°15.425 2°49.95 20.7747 0.006019 0.033418 3.938067
2006-06-19 07:07:32 51°15.432 2°49.922 20.8306 0.006019 0.033418 3.938067
2006-06-19 07:07:36 51°15.436 2°49.903 20.8196 0.006019 0.033418 3.971777
2006-06-19 07:07:41 51°15.442 2°49.879 20.8025 0.006019 0.033418 3.938067
2006-06-19 07:07:46 51°15.448 2°49.855 20.8179 0.006019 0.033418 3.971777
2006-06-19 07:07:50 51°15.452 2°49.836 20.8376 0.006019 0.033419 3.938067
2006-06-19 07:07:56 51°15.46 2°49.808 20.8372 0.006019 0.033419 3.938067
2006-06-19 07:08:01 51°15.466 2°49.784 20.8394 0.006019 0.033419 3.971777
2006-06-19 07:08:06 51°15.472 2°49.76 20.8331 0.006019 0.03342 3.938067
2006-06-19 07:08:11 51°15.478 2°49.736 20.8496 0.006019 0.03342 3.971777
2006-06-19 07:08:16 51°15.484 2°49.712 20.8232 0.006019 0.03342 3.971777
2006-06-19 07:08:21 51°15.49 2°49.688 20.8423 0.006019 0.03342 3.971777
2006-06-19 07:08:27 51°15.498 2°49.66 20.8574 0.006019 0.03342 3.971777
2006-06-19 07:08:30 51°15.501 2°49.646 20.8513 0.006019 0.033421 3.938067
2006-06-19 07:08:36 51°15.508 2°49.617 20.8414 0.006019 0.033421 4.005486
2006-06-19 07:08:41 51°15.513 2°49.593 20.8401 0.006019 0.033421 3.971777
2006-06-19 07:08:46 51°15.518 2°49.569 20.8325 0.006019 0.033422 3.938067
2006-06-19 07:08:51 51°15.524 2°49.545 20.8216 0.006019 0.033422 3.971777
2006-06-19 07:08:56 51°15.529 2°49.521 19.0485 0.006019 0.033422 3.971777
2006-06-19 07:09:01 51°15.535 2°49.497 18.1972 0.006019 0.033422 3.938067
2006-06-19 07:09:06 51°15.541 2°49.474 17.811 0.006019 0.033425 3.938067
2006-06-19 07:09:11 51°15.547 2°49.451 17.5402 0.006019 0.033518 3.938067
2006-06-19 07:09:16 51°15.554 2°49.427 17.4508 1.913352 11.227514 5.994341
2006-06-19 07:09:20 51°15.558 2°49.408 17.3844 3.76393 24.725046 6.499982
2006-06-19 07:09:26 51°15.566 2°49.379 17.3243 3.76393 24.725046 6.499982
2006-06-19 07:09:30 51°15.57 2°49.36 17.3128 3.944348 27.186094 6.735947
2006-06-19 07:09:36 51°15.578 2°49.331 17.2615 3.842889 27.344364 6.837076
2006-06-19 07:09:40 51°15.582 2°49.312 17.2583 4.127973 30.28623 5.589828
2006-06-19 07:09:46 51°15.589 2°49.283 17.2353 4.235181 31.593996 5.320153
2006-06-19 07:09:52 51°15.595 2°49.254 17.2049 4.247203 31.964317 5.252734
2006-06-19 07:09:57 51°15.601 2°49.23 17.2024 4.247203 31.964317 5.252734
2006-06-19 07:10:01 51°15.606 2°49.211 17.2014 4.244993 32.133186 5.219024
2006-06-19 07:10:06 51°15.612 2°49.188 17.1811 4.244151 32.216658 5.219024
2006-06-19 07:10:11 51°15.619 2°49.164 17.1808 4.042513 30.587936 5.151606
2006-06-19 07:10:16 51°15.625 2°49.14 17.1817 4.238039 32.28825 5.117896
2006-06-19 07:10:22 51°15.633 2°49.111 17.1609 4.24194 32.372537 5.185315
2006-06-19 07:10:26 51°15.638 2°49.092 17.1454 4.24194 32.372537 5.185315
2006-06-19 07:10:31 51°15.644 2°49.069 17.1515 4.221912 32.236094 5.219024
2006-06-19 07:10:36 51°15.651 2°49.045 17.1553 4.223283 32.272745 5.185315
2006-06-19 07:10:42 51°15.658 2°49.017 17.1508 4.228238 32.333654 5.185315
2006-06-19 07:10:46 51°15.663 2°48.998 17.1412 4.232455 32.380164 5.219024
2006-06-19 07:10:51 51°15.669 2°48.974 17.1259 4.238464 32.450223 5.286443
2006-06-19 07:10:56 51°15.675 2°48.95 17.1253 4.238464 32.450223 5.286443
2006-06-19 07:11:02 51°15.682 2°48.921 17.1284 4.211478 32.235321 5.286443
2006-06-19 07:11:06 51°15.686 2°48.902 17.1304 4.222125 32.337407 5.286443
2006-06-19 07:11:10 51°15.69 2°48.883 17.1287 4.22086 32.330093 5.353862
2006-06-19 07:11:16 51°15.697 2°48.854 17.1087 4.196826 32.133933 5.353862
2006-06-19 07:11:21 51°15.703 2°48.83 17.1175 4.238886 32.506619 5.387571
2006-06-19 07:11:26 51°15.708 2°48.806 17.1226 4.238886 32.506619 5.387571
2006-06-19 07:11:32 51°15.715 2°48.777 17.1204 4.247003 32.580857 5.320153
2006-06-19 07:11:36 51°15.72 2°48.758 17.1072 4.24616 32.583646 5.387571
2006-06-19 07:11:41 51°15.727 2°48.734 17.1122 4.248374 32.607928 5.387571
2006-06-19 07:11:46 51°15.733 2°48.71 17.1166 4.248479 32.611192 5.353862
2006-06-19 07:11:52 51°15.742 2°48.682 17.1065 4.25375 32.662295 5.421281
2006-06-19 07:11:56 51°15.747 2°48.663 17.1078 4.25375 32.662295 5.421281
2006-06-19 07:12:01 51°15.753 2°48.64 17.1128 4.25375 32.667024 5.45499
2006-06-19 07:12:06 51°15.759 2°48.616 17.1096 4.248585 32.626854 5.387571
2006-06-19 07:12:11 51°15.766 2°48.592 17.0972 4.253645 32.668485 5.421281
2006-06-19 07:12:16 51°15.771 2°48.567 17.0983 4.250166 32.646327 5.421281
2006-06-19 07:12:21 51°15.777 2°48.543 17.1038 4.252591 32.665946 5.421281
2006-06-19 07:12:26 51°15.783 2°48.519 17.1053 4.252591 32.665946 5.421281
2006-06-19 07:12:31 51°15.788 2°48.496 17.0953 4.254699 32.689955 5.421281
2006-06-19 07:12:36 51°15.794 2°48.472 17.1006 4.256702 32.707146 5.421281
2006-06-19 07:12:41 51°15.8 2°48.448 17.101 4.255543 32.695417 5.421281
2006-06-19 07:12:45 51°15.804 2°48.429 17.093 4.259865 32.74022 5.421281
2006-06-19 07:12:51 51°15.812 2°48.401 17.1024 4.262711 32.768814 5.387571
2006-06-19 07:12:56 51°15.818 2°48.378 17.0901 4.262711 32.768814 5.387571
2006-06-19 07:13:01 51°15.825 2°48.355 17.0946 4.259759 32.747027 5.387571
2006-06-19 07:13:06 51°15.832 2°48.332 17.095 4.261868 32.765727 5.387571
2006-06-19 07:13:12 51°15.84 2°48.304 17.1018 4.26229 32.771724 5.353862
2006-06-19 07:13:16 51°15.845 2°48.286 17.112 4.264293 32.793088 5.387571
2006-06-19 07:13:21 51°15.852 2°48.263 17.112 4.268298 32.828695 5.387571
2006-06-19 07:13:26 51°15.858 2°48.239 17.1041 4.268298 32.828695 5.387571
2006-06-19 07:13:30 51°15.863 2°48.221 17.1057 4.263765 32.784995 5.387571
2006-06-19 07:13:36 51°15.871 2°48.193 17.0981 4.268931 32.833535 5.353862
2006-06-19 07:13:41 51°15.876 2°48.169 17.0989 4.26735 32.819948 5.387571
2006-06-19 07:13:46 51°15.882 2°48.146 17.0983 4.266295 32.810296 5.387571
2006-06-19 07:13:52 51°15.89 2°48.118 17.0988 4.261868 32.769884 5.421281
2006-06-19 07:13:56 51°15.894 2°48.099 17.102 4.261868 32.769884 5.421281
2006-06-19 07:14:01 51°15.9 2°48.075 17.0966 4.2625 32.777099 5.353862
2006-06-19 07:14:06 51°15.905 2°48.052 17.0965 4.266401 32.813581 5.387571
2006-06-19 07:14:12 51°15.911 2°48.023 17.0909 4.266296 32.813865 5.387571
2006-06-19 07:14:16 51°15.916 2°48.004 17.0969 4.269036 32.838012 5.353862
2006-06-19 07:14:21 51°15.921 2°47.981 17.0909 4.268931 32.840083 5.387571
2006-06-19 07:14:25 51°15.926 2°47.962 17.1041 4.268931 32.840083 5.387571
2006-06-19 07:14:32 51°15.934 2°47.929 17.0961 4.261341 32.77486 5.421281
2006-06-19 07:14:36 51°15.939 2°47.91 17.0873 4.258178 32.748283 5.353862
2006-06-19 07:14:41 51°15.945 2°47.887 17.0873 4.255121 32.723208 5.421281
2006-06-19 07:14:46 51°15.952 2°47.864 17.0851 4.251116 32.689984 5.421281
2006-06-19 07:14:50 51°15.956 2°47.845 17.0852 4.2547 32.723145 5.421281
2006-06-19 07:14:56 51°15.963 2°47.817 17.0759 4.2547 32.723145 5.421281
2006-06-19 07:15:01 51°15.969 2°47.794 17.0774 4.261025 32.77868 5.421281
2006-06-19 07:15:06 51°15.975 2°47.77 17.0746 4.263344 32.797421 5.45499
2006-06-19 07:15:11 51°15.981 2°47.747 17.073 4.26619 32.824264 5.4887
2006-06-19 07:15:16 51°15.986 2°47.723 17.0727 4.262817 32.798244 5.4887
2006-06-19 07:15:21 51°15.992 2°47.699 17.0763 4.26872 32.850779 5.45499
2006-06-19 07:15:26 51°15.998 2°47.676 17.0789 4.26872 32.850779 5.45499
2006-06-19 07:15:32 51°16.006 2°47.648 17.0688 4.267877 32.846507 5.4887
2006-06-19 07:15:36 51°16.011 2°47.629 17.0641 4.271356 32.880596 5.4887
2006-06-19 07:15:42 51°16.019 2°47.601 17.0649 4.270723 32.873963 5.522409
2006-06-19 07:15:46 51°16.024 2°47.583 17.0678 4.272832 32.898661 5.522409
2006-06-19 07:15:50 51°16.029 2°47.564 17.0641 4.268826 32.8648 5.522409
2006-06-19 07:15:56 51°16.036 2°47.536 17.0671 4.268826 32.8648 5.522409
2006-06-19 07:15:58 51°16.039 2°47.527 17.0624 4.268826 32.863607 5.522409
2006-06-19 07:16:06 51°16.048 2°47.489 17.0631 4.266191 32.844517 5.522409
2006-06-19 07:16:12 51°16.054 2°47.461 17.0594 4.272832 32.905827 5.522409
2006-06-19 07:16:16 51°16.059 2°47.442 17.0597 4.269353 32.872913 5.556118
2006-06-19 07:16:21 51°16.064 2°47.418 17.0588 4.269037 32.872578 5.589828
2006-06-19 07:16:26 51°16.069 2°47.395 17.0616 4.269037 32.872578 5.589828
2006-06-19 07:16:32 51°16.076 2°47.367 17.0583 4.277049 32.945102 5.589828
2006-06-19 07:16:36 51°16.08 2°47.348 17.059 4.278314 32.957187 5.556118
2006-06-19 07:16:41 51°16.086 2°47.324 17.057 4.278419 32.959889 5.556118
2006-06-19 07:16:46 51°16.092 2°47.301 17.0536 4.278525 32.960797 5.589828
2006-06-19 07:16:52 51°16.099 2°47.272 17.0516 4.279579 32.971069 5.589828
2006-06-19 07:16:56 51°16.105 2°47.254 17.0479 4.279579 32.971069 5.589828
2006-06-19 07:17:01 51°16.111 2°47.231 17.0499 4.279368 32.972247 5.623537
2006-06-19 07:17:06 51°16.118 2°47.207 17.0471 4.27979 32.975877 5.589828
2006-06-19 07:17:12 51°16.125 2°47.18 17.0426 4.279263 32.971938 5.589828
2006-06-19 07:17:16 51°16.131 2°47.161 17.0411 4.280106 32.979798 5.623537
2006-06-19 07:17:22 51°16.138 2°47.133 17.0413 4.280001 32.981885 5.623537
2006-06-19 07:17:26 51°16.144 2°47.114 17.0381 4.280001 32.981885 5.623537
2006-06-19 07:17:32 51°16.152 2°47.087 17.0354 4.280317 32.986405 5.657247
2006-06-19 07:17:36 51°16.157 2°47.068 17.0292 4.279895 32.984572 5.657247
2006-06-19 07:17:41 51°16.163 2°47.044 17.0297 4.27979 32.985461 5.623537
2006-06-19 07:17:46 51°16.168 2°47.021 17.0287 4.279685 32.985752 5.657247
2006-06-19 07:17:52 51°16.175 2°46.992 17.0279 4.280106 32.995377 5.657247
2006-06-19 07:17:56 51°16.179 2°46.973 17.0268 4.280106 32.995377 5.657247
2006-06-19 07:18:02 51°16.187 2°46.945 17.0278 4.280317 32.998992 5.690956
2006-06-19 07:18:06 51°16.192 2°46.926 17.0228 4.28095 33.005041 5.690956
2006-06-19 07:18:11 51°16.198 2°46.903 17.0211 4.281899 33.016214 5.690956
2006-06-19 07:18:16 51°16.205 2°46.879 17.0213 4.281899 33.018615 5.690956
2006-06-19 07:18:20 51°16.21 2°46.861 17.0211 4.281582 33.01769 5.690956
2006-06-19 07:18:26 51°16.218 2°46.833 17.0168 4.281582 33.01769 5.690956
2006-06-19 07:18:30 51°16.223 2°46.814 17.0123 4.281793 33.021908 5.724665
2006-06-19 07:18:36 51°16.231 2°46.786 17.0081 4.281582 33.021291 5.758375
2006-06-19 07:18:41 51°16.237 2°46.763 17.0087 4.282004 33.025526 5.724665
2006-06-19 07:18:46 51°16.243 2°46.739 17.0018 4.28232 33.030053 5.724665
2006-06-19 07:18:50 51°16.247 2°46.72 16.9982 4.282004 33.029128 5.724665
2006-06-19 07:18:56 51°16.254 2°46.691 16.9996 4.282004 33.029128 5.724665
2006-06-19 07:19:02 51°16.26 2°46.662 16.9938 4.281899 33.030021 5.758375
2006-06-19 07:19:06 51°16.264 2°46.643 16.9918 4.282321 33.037861 5.724665
2006-06-19 07:19:10 51°16.268 2°46.624 16.9914 4.282321 33.039664 5.724665
2006-06-19 07:19:16 51°16.273 2°46.595 16.994 4.282637 33.045395 5.758375
2006-06-19 07:19:21 51°16.277 2°46.57 16.9855 4.282321 33.048078 5.758375
2006-06-19 07:19:26 51°16.281 2°46.546 16.9891 4.282321 33.048078 5.758375
2006-06-19 07:19:32 51°16.286 2°46.517 16.9778 4.282953 33.057141 5.758375
2006-06-19 07:19:36 51°16.289 2°46.497 16.9767 4.282532 33.055309 5.758375
2006-06-19 07:19:41 51°16.293 2°46.473 16.9749 4.283059 33.062262 5.792084
2006-06-19 07:19:46 51°16.297 2°46.448 16.9762 4.282532 33.058918 5.758375
2006-06-19 07:19:51 51°16.302 2°46.424 16.9761 4.282215 33.057393 5.792084
2006-06-19 07:19:56 51°16.306 2°46.399 16.9714 4.282215 33.057393 5.792084
2006-06-19 07:20:01 51°16.311 2°46.375 16.9697 4.282953 33.064962 5.792084
2006-06-19 07:20:06 51°16.316 2°46.351 16.9695 4.282954 33.069777 5.825794
2006-06-19 07:20:09 51°16.32 2°46.336 16.9625 4.28327 33.077323 5.825794
2006-06-19 07:20:16 51°16.326 2°46.302 16.9581 4.282743 33.074581 5.825794
2006-06-19 07:20:21 51°16.331 2°46.278 16.9509 4.281794 33.065791 5.825794
2006-06-19 07:20:26 51°16.336 2°46.253 16.9428 4.281794 33.065791 5.825794
2006-06-19 07:20:31 51°16.34 2°46.229 16.9397 4.282005 33.069417 5.825794
2006-06-19 07:20:36 51°16.344 2°46.204 16.9355 4.281794 33.069404 5.825794
2006-06-19 07:20:41 51°16.349 2°46.179 16.9316 4.280635 33.062406 5.825794
2006-06-19 07:20:46 51°16.353 2°46.154 16.9271 4.281794 33.077234 5.859503
2006-06-19 07:20:50 51°16.357 2°46.134 16.9215 4.281162 33.074786 5.859503
2006-06-19 07:20:56 51°16.361 2°46.105 16.913 4.281162 33.074786 5.859503
2006-06-19 07:21:01 51°16.365 2°46.08 16.9002 4.281373 33.080824 5.859503
2006-06-19 07:21:06 51°16.369 2°46.055 16.885 4.281267 33.085942 5.825794
2006-06-19 07:21:11 51°16.373 2°46.03 16.8768 4.280635 33.085303 5.859503
2006-06-19 07:21:16 51°16.377 2°46.005 16.8625 4.279792 33.08405 5.825794
2006-06-19 07:21:22 51°16.383 2°45.975 16.8425 4.274521 33.042739 5.825794
2006-06-19 07:21:26 51°16.386 2°45.956 16.8376 4.274521 33.042739 5.825794
2006-06-19 07:21:30 51°16.39 2°45.936 16.8212 4.278738 33.086404 5.859503
2006-06-19 07:21:36 51°16.396 2°45.906 16.8058 4.278421 33.087895 5.893212
2006-06-19 07:21:41 51°16.401 2°45.882 16.7888 4.278527 33.099674 5.859503
2006-06-19 07:21:46 51°16.407 2°45.857 16.7761 4.277368 33.099313 5.960631
2006-06-19 07:21:52 51°16.412 2°45.827 16.7708 4.276314 33.101678 6.02805
2006-06-19 07:21:56 51°16.416 2°45.807 16.7575 4.276314 33.101678 6.02805
2006-06-19 07:22:01 51°16.421 2°45.783 16.7482 4.275471 33.107685 6.02805
2006-06-19 07:22:06 51°16.426 2°45.758 16.7327 4.275471 33.120393 6.129178
2006-06-19 07:22:11 51°16.431 2°45.733 16.7205 4.275155 33.129766 6.129178
2006-06-19 07:22:16 51°16.435 2°45.708 16.707 4.273995 33.138511 6.162888
2006-06-19 07:22:22 51°16.441 2°45.678 16.6874 4.273258 33.141214 6.162888
2006-06-19 07:22:26 51°16.444 2°45.658 16.6706 4.273258 33.141214 6.162888
2006-06-19 07:22:30 51°16.448 2°45.639 16.6724 4.271466 33.137815 6.230306
2006-06-19 07:22:36 51°16.453 2°45.609 16.6507 4.270096 33.139286 6.230306
2006-06-19 07:22:41 51°16.457 2°45.583 16.6465 4.269779 33.145653 6.264016
2006-06-19 07:22:46 51°16.461 2°45.558 16.6291 4.268198 33.146517 6.264016
2006-06-19 07:22:52 51°16.466 2°45.529 16.6154 4.267566 33.153794 6.331435
2006-06-19 07:22:56 51°16.469 2°45.509 16.6148 4.267566 33.153794 6.331435
2006-06-19 07:23:01 51°16.474 2°45.483 16.6063 4.266512 33.162895 6.365144
2006-06-19 07:23:06 51°16.479 2°45.459 16.5952 4.265247 33.161039 6.398853
2006-06-19 07:23:12 51°16.485 2°45.429 16.5835 4.263561 33.157346 6.432563
2006-06-19 07:23:16 51°16.488 2°45.409 16.5803 4.262507 33.159759 6.432563
2006-06-19 07:23:21 51°16.493 2°45.384 16.5635 4.261558 33.162483 6.466272
2006-06-19 07:23:26 51°16.498 2°45.359 16.5484 4.261558 33.162483 6.466272
2006-06-19 07:23:30 51°16.501 2°45.339 16.5355 4.259872 33.15879 6.466272
2006-06-19 07:23:36 51°16.507 2°45.309 16.5336 4.259556 33.164579 6.466272
2006-06-19 07:23:42 51°16.512 2°45.279 16.5218 4.257764 33.157529 6.466272
2006-06-19 07:23:46 51°16.515 2°45.259 16.5152 4.205268 32.710233 6.533691
2006-06-19 07:23:50 51°16.518 2°45.239 16.5121 4.253864 33.140059 6.5674
2006-06-19 07:23:57 51°16.524 2°45.204 16.5023 4.253864 33.140059 6.5674
2006-06-19 07:24:01 51°16.529 2°45.184 16.5015 4.252177 33.138802 6.499982
2006-06-19 07:24:06 51°16.534 2°45.16 16.4855 4.251229 33.141531 6.499982
2006-06-19 07:24:12 51°16.542 2°45.131 16.4788 4.249648 33.136919 6.499982
2006-06-19 07:24:16 51°16.548 2°45.112 16.4712 4.248277 33.134142 6.533691
2006-06-19 07:24:21 51°16.555 2°45.088 16.4599 4.246696 33.128917 6.533691
2006-06-19 07:24:26 51°16.562 2°45.064 16.4542 4.246696 33.128917 6.533691
2006-06-19 07:24:31 51°16.569 2°45.041 16.4462 4.246591 33.134721 6.499982
2006-06-19 07:24:36 51°16.576 2°45.017 16.4334 4.246696 33.141755 6.466272
2006-06-19 07:24:42 51°16.585 2°44.988 16.4279 4.243534 33.121518 6.466272
2006-06-19 07:24:46 51°16.591 2°44.97 16.4223 4.242902 33.125786 6.466272
2006-06-19 07:24:52 51°16.601 2°44.941 16.4199 4.240477 33.113811 6.466272
2006-06-19 07:24:56 51°16.607 2°44.922 16.4085 4.240477 33.113811 6.466272
2006-06-19 07:25:01 51°16.615 2°44.9 16.4064 4.239845 33.116246 6.466272
2006-06-19 07:25:06 51°16.623 2°44.876 16.3981 4.240478 33.128498 6.466272
2006-06-19 07:25:11 51°16.631 2°44.853 16.3932 4.23858 33.122344 6.466272
2006-06-19 07:25:16 51°16.64 2°44.83 16.3943 4.237526 33.121715 6.466272
2006-06-19 07:25:20 51°16.647 2°44.812 16.3846 4.236367 33.118327 6.432563
2006-06-19 07:25:26 51°16.657 2°44.784 16.3756 4.236367 33.118327 6.432563
2006-06-19 07:25:30 51°16.664 2°44.766 16.3701 4.234575 33.108188 6.466272
2006-06-19 07:25:36 51°16.674 2°44.738 16.3607 4.234891 33.117691 6.466272
2006-06-19 07:25:41 51°16.682 2°44.715 16.3587 4.233205 33.110309 6.466272
2006-06-19 07:25:46 51°16.691 2°44.692 16.3571 4.233837 33.121354 6.466272
2006-06-19 07:25:51 51°16.699 2°44.669 16.3528 4.232678 33.116125 6.466272
2006-06-19 07:25:56 51°16.708 2°44.646 16.3529 4.232678 33.116125 6.466272
2006-06-19 07:26:02 51°16.718 2°44.618 16.3448 4.230464 33.104133 6.499982
2006-06-19 07:26:06 51°16.724 2°44.6 16.3404 4.229832 33.102896 6.533691
2006-06-19 07:26:10 51°16.731 2°44.581 16.3369 4.226775 33.0823 6.499982
2006-06-19 07:26:16 51°16.741 2°44.553 16.3334 4.228672 33.105025 6.466272
2006-06-19 07:26:22 51°16.751 2°44.526 16.3352 4.226775 33.091498 6.466272
2006-06-19 07:26:26 51°16.757 2°44.507 16.3327 4.226775 33.091498 6.466272
2006-06-19 07:26:30 51°16.764 2°44.488 16.3297 4.227302 33.099175 6.466272
2006-06-19 07:26:36 51°16.773 2°44.461 16.3258 4.227408 33.10562 6.466272
2006-06-19 07:26:42 51°16.783 2°44.433 16.3213 4.225721 33.096389 6.466272
2006-06-19 07:26:46 51°16.79 2°44.414 16.3213 4.224245 33.086545 6.466272
2006-06-19 07:26:50 51°16.797 2°44.396 16.3263 4.224562 33.092381 6.499982
2006-06-19 07:26:56 51°16.807 2°44.368 16.3234 4.224562 33.092381 6.499982
2006-06-19 07:27:01 51°16.816 2°44.346 16.3176 4.224878 33.098831 6.466272
2006-06-19 07:27:06 51°16.825 2°44.323 16.3202 4.224246 33.095138 6.432563
2006-06-19 07:27:12 51°16.835 2°44.295 16.3171 4.224456 33.09944 6.466272
2006-06-19 07:27:16 51°16.842 2°44.277 16.317 4.224773 33.10405 6.432563
2006-06-19 07:27:21 51°16.851 2°44.255 16.3125 4.224667 33.108042 6.432563
2006-06-19 07:27:27 51°16.862 2°44.228 16.3214 4.224667 33.108042 6.432563
2006-06-19 07:27:30 51°16.868 2°44.214 16.3194 4.223824 33.10066 6.432563
2006-06-19 07:27:36 51°16.878 2°44.187 16.3206 4.223613 33.099428 6.432563
2006-06-19 07:27:42 51°16.888 2°44.159 16.3224 4.222665 33.092351 6.432563
2006-06-19 07:27:46 51°16.895 2°44.141 16.3255 4.222665 33.09358 6.432563
2006-06-19 07:27:51 51°16.903 2°44.118 16.3306 4.221716 33.087117 6.432563
2006-06-19 07:27:56 51°16.912 2°44.095 16.3294 4.221716 33.087117 6.432563
2006-06-19 07:28:01 51°16.92 2°44.072 16.3284 4.221927 33.088962 6.365144
2006-06-19 07:28:06 51°16.929 2°44.049 16.3322 4.221821 33.088039 6.365144
2006-06-19 07:28:10 51°16.936 2°44.031 16.335 4.221821 33.088039 6.331435
2006-06-19 07:28:16 51°16.947 2°44.004 16.337 4.221927 33.085892 6.297725
2006-06-19 07:28:21 51°16.956 2°43.981 16.3389 4.2214 33.081278 6.331435
2006-06-19 07:28:25 51°16.963 2°43.963 16.3415 4.2214 33.081278 6.331435
2006-06-19 07:28:30 51°16.972 2°43.941 16.3416 4.22161 33.080668 6.264016
2006-06-19 07:28:36 51°16.983 2°43.914 16.3463 4.220767 33.072672 6.264016
2006-06-19 07:28:42 51°16.993 2°43.887 16.3489 4.220767 33.071445 6.230306
2006-06-19 07:28:46 51°17 2°43.868 16.346 4.221505 33.075448 6.230306
2006-06-19 07:28:50 51°17.007 2°43.85 16.3472 4.220978 33.068995 6.264016
2006-06-19 07:28:56 51°17.018 2°43.823 16.3467 4.220978 33.068995 6.264016
2006-06-19 07:29:02 51°17.028 2°43.795 16.3472 4.220556 33.062851 6.230306
2006-06-19 07:29:06 51°17.035 2°43.777 16.346 4.221821 33.07208 6.230306
2006-06-19 07:29:12 51°17.045 2°43.75 16.3486 4.221821 33.070853 6.162888
2006-06-19 07:29:16 51°17.053 2°43.732 16.3493 4.221083 33.062556 6.162888
2006-06-19 07:29:22 51°17.064 2°43.705 16.3582 4.221399 33.065937 6.162888
2006-06-19 07:29:26 51°17.072 2°43.687 16.3543 4.221399 33.065937 6.162888
2006-06-19 07:29:32 51°17.083 2°43.661 16.3487 4.221189 33.063479 6.129178
2006-06-19 07:29:36 51°17.091 2°43.644 16.3468 4.221716 33.065637 6.129178
2006-06-19 07:29:41 51°17.101 2°43.622 16.3428 4.221821 33.066559 6.095469
2006-06-19 07:29:46 51°17.112 2°43.6 16.34 4.221294 33.061335 6.129178
2006-06-19 07:29:52 51°17.124 2°43.574 16.3382 4.221188 33.059186 6.095469
2006-06-19 07:29:56 51°17.131 2°43.557 16.3418 4.221188 33.059186 6.095469
2006-06-19 07:30:01 51°17.141 2°43.535 16.3395 4.220767 33.054885 6.129178
2006-06-19 07:30:06 51°17.15 2°43.512 16.338 4.221083 33.055812 6.095469
2006-06-19 07:30:12 51°17.161 2°43.485 16.3408 4.22161 33.063488 6.061759
2006-06-19 07:30:16 51°17.168 2°43.467 16.3477 4.221821 33.068399 6.095469
2006-06-19 07:30:21 51°17.178 2°43.445 16.3445 4.222137 33.072393 6.095469
2006-06-19 07:30:26 51°17.187 2°43.423 16.344 4.222137 33.072393 6.095469
2006-06-19 07:30:32 51°17.198 2°43.397 16.3494 4.22161 33.069622 6.095469
2006-06-19 07:30:36 51°17.205 2°43.38 16.3498 4.222981 33.081613 6.061759
2006-06-19 07:30:42 51°17.217 2°43.353 16.3525 4.223402 33.085916 6.095469
2006-06-19 07:30:47 51°17.227 2°43.332 16.3593 4.223929 33.090529 6.061759
2006-06-19 07:30:52 51°17.237 2°43.31 16.3615 4.224983 33.097298 6.061759
2006-06-19 07:30:56 51°17.245 2°43.293 16.3644 4.224983 33.097298 6.061759
2006-06-19 07:31:01 51°17.254 2°43.271 16.3699 4.22667 33.111444 6.061759
2006-06-19 07:31:05 51°17.262 2°43.254 16.3702 4.227724 33.120669 6.095469
2006-06-19 07:31:10 51°17.271 2°43.232 16.3768 4.229095 33.130819 6.061759
2006-06-19 07:31:16 51°17.282 2°43.205 16.3784 4.229832 33.135433 6.095469
2006-06-19 07:31:22 51°17.292 2°43.179 16.3861 4.23173 33.14835 6.061759
2006-06-19 07:31:26 51°17.3 2°43.162 16.3883 4.23173 33.14835 6.061759
2006-06-19 07:31:31 51°17.31 2°43.14 16.3891 4.232468 33.152348 6.061759
2006-06-19 07:31:36 51°17.32 2°43.119 16.3938 4.233522 33.158499 6.095469
2006-06-19 07:31:41 51°17.33 2°43.097 16.3982 4.23447 33.164341 6.095469
2006-06-19 07:31:46 51°17.34 2°43.075 16.4086 4.236157 33.174794 6.095469
2006-06-19 07:31:50 51°17.348 2°43.059 16.4211 4.237949 33.186783 6.095469
2006-06-19 07:31:56 51°17.361 2°43.033 16.4363 4.237949 33.186783 6.095469
2006-06-19 07:32:01 51°17.37 2°43.012 16.4468 4.238792 33.19047 6.129178
2006-06-19 07:32:05 51°17.378 2°42.994 16.4629 4.239214 33.189853 6.095469
2006-06-19 07:32:12 51°17.392 2°42.965 16.4775 4.240373 33.197536 6.162888
2006-06-19 07:32:16 51°17.4 2°42.948 16.4903 4.23953 33.18647 6.129178
2006-06-19 07:32:21 51°17.409 2°42.926 16.5006 4.243219 33.211357 6.129178
2006-06-19 07:32:26 51°17.418 2°42.904 16.5118 4.243219 33.211357 6.129178
2006-06-19 07:32:32 51°17.43 2°42.878 16.5165 4.246382 33.230398 6.095469
2006-06-19 07:32:36 51°17.437 2°42.861 16.5218 4.248806 33.236829 6.095469
2006-06-19 07:32:41 51°17.446 2°42.839 16.5258 4.251757 33.252169 6.095469
2006-06-19 07:32:46 51°17.455 2°42.817 16.5301 4.255341 33.271798 6.061759
2006-06-19 07:32:52 51°17.467 2°42.791 16.5327 4.259031 33.291108 6.061759
2006-06-19 07:32:56 51°17.475 2°42.774 16.5368 4.259031 33.291108 6.061759
2006-06-19 07:33:01 51°17.485 2°42.753 16.5389 4.262299 33.308573 6.061759
2006-06-19 07:33:06 51°17.495 2°42.731 16.541 4.264301 33.316831 6.02805
2006-06-19 07:33:11 51°17.505 2°42.71 16.5403 4.267358 33.334904 6.02805
2006-06-19 07:33:16 51°17.515 2°42.689 16.5399 4.269361 33.346233 6.061759
2006-06-19 07:33:22 51°17.527 2°42.664 16.5362 4.27168 33.36463 6.061759
2006-06-19 07:33:26 51°17.535 2°42.646 16.5342 4.27168 33.36463 6.061759
2006-06-19 07:33:31 51°17.545 2°42.624 16.5301 4.27284 33.368592 6.061759
2006-06-19 07:33:36 51°17.554 2°42.602 16.5278 4.271996 33.358154 6.095469
2006-06-19 07:33:41 51°17.564 2°42.58 16.5213 4.275686 33.386658 6.095469
2006-06-19 07:33:46 51°17.573 2°42.558 16.5141 4.277584 33.402602 6.095469
2006-06-19 07:33:50 51°17.581 2°42.541 16.5109 4.278954 33.414563 6.095469
2006-06-19 07:33:56 51°17.594 2°42.516 16.5058 4.278954 33.414563 6.095469
2006-06-19 07:34:01 51°17.604 2°42.494 16.4945 4.280535 33.430832 6.129178
2006-06-19 07:34:06 51°17.614 2°42.473 16.488 4.281168 33.436354 6.095469
2006-06-19 07:34:11 51°17.624 2°42.451 16.4771 4.282538 33.450787 6.095469
2006-06-19 07:34:16 51°17.634 2°42.43 16.4674 4.282433 33.454806 6.162888
2006-06-19 07:34:21 51°17.644 2°42.408 16.4622 4.282328 33.458209 6.162888
2006-06-19 07:34:26 51°17.653 2°42.386 16.4541 4.282328 33.458209 6.162888
2006-06-19 07:34:32 51°17.665 2°42.36 16.4409 4.282433 33.462218 6.196597
2006-06-19 07:34:36 51°17.673 2°42.343 16.4254 4.282328 33.468713 6.196597
2006-06-19 07:34:41 51°17.683 2°42.321 16.4181 4.281485 33.468146 6.264016
2006-06-19 07:34:46 51°17.692 2°42.3 16.4063 4.280641 33.469433 6.230306
2006-06-19 07:34:50 51°17.7 2°42.282 16.3955 4.279798 33.470722 6.264016
2006-06-19 07:34:56 51°17.712 2°42.257 16.3864 4.279798 33.470722 6.264016
2006-06-19 07:35:02 51°17.724 2°42.231 16.3696 4.278428 33.466785 6.264016
2006-06-19 07:35:06 51°17.732 2°42.213 16.3601 4.277163 33.464388 6.297725
2006-06-19 07:35:11 51°17.742 2°42.191 16.348 4.27516 33.458012 6.331435
2006-06-19 07:35:16 51°17.751 2°42.169 16.3377 4.27379 33.455929 6.331435
2006-06-19 07:35:21 51°17.761 2°42.147 16.3268 4.271893 33.450472 6.398853
2006-06-19 07:35:26 51°17.77 2°42.125 16.3133 4.271893 33.450472 6.398853
2006-06-19 07:35:31 51°17.78 2°42.103 16.3067 4.270628 33.449311 6.398853
2006-06-19 07:35:36 51°17.79 2°42.081 16.2921 4.269257 33.447228 6.432563
2006-06-19 07:35:42 51°17.801 2°42.055 16.2804 4.267149 33.44054 6.398853
2006-06-19 07:35:46 51°17.809 2°42.037 16.2784 4.265463 33.439405 6.398853
2006-06-19 07:35:50 51°17.817 2°42.02 16.2672 4.262933 33.425918 6.432563
2006-06-19 07:35:56 51°17.828 2°41.993 16.2539 4.262933 33.425918 6.432563
2006-06-19 07:36:02 51°17.839 2°41.966 16.2467 4.262195 33.428133 6.398853
2006-06-19 07:36:06 51°17.847 2°41.948 16.2477 4.259665 33.4165 6.432563
2006-06-19 07:36:11 51°17.856 2°41.927 16.2366 4.257663 33.411966 6.432563
2006-06-19 07:36:16 51°17.866 2°41.904 16.2317 4.255765 33.405873 6.432563
2006-06-19 07:36:22 51°17.878 2°41.878 16.231 4.253552 33.396382 6.398853
2006-06-19 07:36:26 51°17.885 2°41.86 16.2222 4.253552 33.396382 6.398853
2006-06-19 07:36:32 51°17.896 2°41.833 16.2175 4.251971 33.386853 6.331435
2006-06-19 07:36:36 51°17.904 2°41.815 16.2258 4.250389 33.38539 6.398853
2006-06-19 07:36:41 51°17.913 2°41.793 16.2173 4.249863 33.390698 6.297725
2006-06-19 07:36:46 51°17.922 2°41.771 16.2164 4.248703 33.386107 6.331435
2006-06-19 07:36:52 51°17.934 2°41.744 16.2139 4.247438 33.380589 6.331435
2006-06-19 07:36:56 51°17.941 2°41.726 16.2062 4.247438 33.380589 6.331435
2006-06-19 07:37:01 51°17.951 2°41.704 16.2134 4.246173 33.376313 6.331435
2006-06-19 07:37:06 51°17.961 2°41.682 16.2072 4.246595 33.383745 6.331435
2006-06-19 07:37:12 51°17.973 2°41.656 16.2039 4.244908 33.368929 6.297725
2006-06-19 07:37:17 51°17.983 2°41.634 16.2018 4.244592 33.369878 6.264016
2006-06-19 07:37:21 51°17.991 2°41.617 16.2055 4.243854 33.365881 6.297725
2006-06-19 07:37:26 51°18 2°41.595 16.2029 4.243854 33.365881 6.297725
2006-06-19 07:37:32 51°18.012 2°41.569 16.2048 4.243854 33.37023 6.264016
2006-06-19 07:37:36 51°18.02 2°41.551 16.207 4.244065 33.373947 6.297725
2006-06-19 07:37:42 51°18.032 2°41.525 16.207 4.243433 33.370254 6.264016
2006-06-19 07:37:46 51°18.039 2°41.507 16.2119 4.243433 33.373362 6.297725
2006-06-19 07:37:52 51°18.051 2°41.481 16.2104 4.241957 33.3635 6.264016
2006-06-19 07:37:56 51°18.058 2°41.463 16.216 4.241957 33.3635 6.264016
2006-06-19 07:38:01 51°18.068 2°41.44 16.2173 4.242168 33.364732 6.264016
2006-06-19 07:38:06 51°18.078 2°41.419 16.2293 4.24259 33.367816 6.264016
2006-06-19 07:38:11 51°18.087 2°41.397 16.2305 4.243117 33.371204 6.264016
2006-06-19 07:38:16 51°18.097 2°41.375 16.2306 4.243327 33.374301 6.230306
2006-06-19 07:38:21 51°18.106 2°41.352 16.2328 4.243855 33.377068 6.196597
2006-06-19 07:38:26 51°18.116 2°41.33 16.237 4.243855 33.377068 6.196597
2006-06-19 07:38:30 51°18.123 2°41.313 16.2415 4.244276 33.378908 6.230306
2006-06-19 07:38:36 51°18.134 2°41.286 16.2448 4.243222 33.367159 6.230306
2006-06-19 07:38:42 51°18.146 2°41.259 16.2515 4.24396 33.370535 6.230306
2006-06-19 07:38:46 51°18.153 2°41.242 16.2584 4.245014 33.374825 6.196597
2006-06-19 07:38:52 51°18.165 2°41.216 16.2627 4.242484 33.350737 6.162888
2006-06-19 07:38:56 51°18.172 2°41.198 16.2638 4.242484 33.350737 6.162888
2006-06-19 07:39:01 51°18.182 2°41.176 16.2686 4.244803 33.369245 6.196597
2006-06-19 07:39:06 51°18.192 2°41.155 16.274 4.247227 33.385572 6.196597
2006-06-19 07:39:10 51°18.199 2°41.137 16.2766 4.245962 33.370113 6.129178
2006-06-19 07:39:16 51°18.21 2°41.111 16.2809 4.244908 33.357752 6.095469
2006-06-19 07:39:20 51°18.218 2°41.093 16.2811 4.248281 33.381162 6.095469
2006-06-19 07:39:26 51°18.229 2°41.066 16.2828 4.248281 33.381162 6.095469
2006-06-19 07:39:31 51°18.238 2°41.044 16.2843 4.247438 33.369412 6.095469
2006-06-19 07:39:36 51°18.247 2°41.023 16.2832 4.245224 33.345637 6.095469
2006-06-19 07:39:41 51°18.257 2°41.001 16.2838 4.249968 33.384793 6.095469
2006-06-19 07:39:46 51°18.266 2°40.979 16.2839 4.247965 33.362869 6.095469
2006-06-19 07:39:52 51°18.278 2°40.953 16.2831 4.250179 33.379194 6.095469
2006-06-19 07:39:57 51°18.287 2°40.932 16.2779 4.250179 33.379194 6.095469
2006-06-19 07:40:01 51°18.295 2°40.915 16.2748 4.251549 33.38998 6.061759
2006-06-19 07:40:06 51°18.304 2°40.893 16.2749 4.249441 33.369616 6.02805
2006-06-19 07:40:10 51°18.312 2°40.876 16.2725 4.250495 33.377626 6.02805
2006-06-19 07:40:17 51°18.325 2°40.846 16.2707 4.247438 33.349562 6.02805
2006-06-19 07:40:21 51°18.333 2°40.829 16.27 4.24807 33.354491 6.02805
2006-06-19 07:40:26 51°18.342 2°40.808 16.2686 4.24807 33.354491 6.02805
2006-06-19 07:40:30 51°18.349 2°40.791 16.265 4.250389 33.37608 5.994341
2006-06-19 07:40:36 51°18.36 2°40.764 16.2663 4.248597 33.362216 5.994341
2006-06-19 07:40:42 51°18.371 2°40.738 16.2661 4.252076 33.395847 6.02805
2006-06-19 07:40:46 51°18.378 2°40.72 16.2633 4.246805 33.349592 5.994341
2006-06-19 07:40:51 51°18.387 2°40.698 16.2645 4.249546 33.376126 5.994341
2006-06-19 07:40:56 51°18.396 2°40.676 16.2676 4.249546 33.376126 5.994341
2006-06-19 07:41:01 51°18.406 2°40.655 16.2634 4.246805 33.352693 5.994341
2006-06-19 07:41:06 51°18.416 2°40.634 16.2595 4.247016 33.357024 5.994341
2006-06-19 07:41:12 51°18.429 2°40.609 16.2615 4.250073 33.385097 5.994341
2006-06-19 07:41:16 51°18.437 2°40.592 16.262 4.248597 33.373384 5.960631
2006-06-19 07:41:21 51°18.447 2°40.571 16.2642 4.247543 33.364752 5.960631
2006-06-19 07:41:26 51°18.456 2°40.55 16.2649 4.247543 33.364752 5.960631
2006-06-19 07:41:32 51°18.469 2°40.525 16.2663 4.251022 33.394667 5.960631
2006-06-19 07:41:36 51°18.476 2°40.508 16.2662 4.2467 33.35735 5.994341
2006-06-19 07:41:41 51°18.486 2°40.487 16.2716 4.249968 33.385413 5.926922
2006-06-19 07:41:46 51°18.496 2°40.466 16.2753 4.25292 33.413811 5.960631
2006-06-19 07:41:50 51°18.504 2°40.45 16.2797 4.249441 33.382028 5.960631
2006-06-19 07:41:56 51°18.516 2°40.425 16.286 4.249441 33.382028 5.960631
2006-06-19 07:42:02 51°18.528 2°40.4 16.2924 4.254817 33.430471 5.926922
2006-06-19 07:42:06 51°18.537 2°40.384 16.2988 4.255028 33.432322 5.926922
2006-06-19 07:42:10 51°18.545 2°40.367 16.3067 4.254079 33.422127 5.926922
2006-06-19 07:42:16 51°18.557 2°40.343 16.3126 4.255555 33.432597 5.893212
2006-06-19 07:42:21 51°18.567 2°40.322 16.3181 4.256293 33.436589 5.893212
2006-06-19 07:42:26 51°18.577 2°40.301 16.3228 4.256293 33.436589 5.893212
2006-06-19 07:42:30 51°18.585 2°40.284 16.327 4.254922 33.420208 5.859503
2006-06-19 07:42:37 51°18.6 2°40.255 16.3299 4.255555 33.420789 5.859503
2006-06-19 07:42:41 51°18.608 2°40.239 16.3309 4.26072 33.459907 5.859503
2006-06-19 07:42:46 51°18.618 2°40.218 16.331 4.262196 33.467884 5.893212
2006-06-19 07:42:50 51°18.627 2°40.201 16.3333 4.263777 33.474919 5.859503
2006-06-19 07:42:56 51°18.639 2°40.175 16.3342 4.263777 33.474919 5.859503
2006-06-19 07:43:02 51°18.652 2°40.15 16.3379 4.264726 33.477024 5.859503
2006-06-19 07:43:06 51°18.66 2°40.133 16.3368 4.269048 33.508722 5.859503
2006-06-19 07:43:11 51°18.669 2°40.111 16.3376 4.255765 33.389126 5.825794
2006-06-19 07:43:16 51°18.678 2°40.089 16.3404 4.267466 33.488631 5.859503
2006-06-19 07:43:21 51°18.687 2°40.067 16.346 4.270313 33.512352 5.893212
2006-06-19 07:43:26 51°18.697 2°40.045 16.3424 4.270313 33.512352 5.893212
2006-06-19 07:43:32 51°18.709 2°40.019 16.3422 4.269996 33.507712 5.859503
2006-06-19 07:43:36 51°18.717 2°40.002 16.3391 4.271683 33.521261 5.859503
2006-06-19 07:43:42 51°18.73 2°39.977 16.3342 4.273686 33.538207 5.893212
2006-06-19 07:43:46 51°18.738 2°39.96 16.336 4.277903 33.573328 5.893212
2006-06-19 07:43:52 51°18.751 2°39.934 16.3322 4.257451 33.392754 5.893212
2006-06-19 07:43:56 51°18.759 2°39.917 16.33 4.257451 33.392754 5.893212
2006-06-19 07:44:01 51°18.769 2°39.895 16.3285 4.276954 33.560644 5.893212
2006-06-19 07:44:06 51°18.779 2°39.874 16.3234 4.276427 33.555398 5.926922
2006-06-19 07:44:12 51°18.791 2°39.847 16.3185 4.2798 33.586234 5.893212
2006-06-19 07:44:16 51°18.799 2°39.83 16.3148 4.276848 33.562211 5.893212
2006-06-19 07:44:21 51°18.809 2°39.808 16.3102 4.282963 33.617722 5.926922
2006-06-19 07:44:26 51°18.819 2°39.786 16.3056 4.282963 33.617722 5.926922
2006-06-19 07:44:31 51°18.829 2°39.764 16.3036 4.283595 33.625144 5.893212
2006-06-19 07:44:36 51°18.839 2°39.742 16.2998 4.284333 33.632868 5.926922
2006-06-19 07:44:41 51°18.849 2°39.72 16.2986 4.284544 33.637217 5.926922
2006-06-19 07:44:46 51°18.858 2°39.698 16.2958 4.285598 33.650842 5.926922
2006-06-19 07:44:51 51°18.868 2°39.675 16.2899 4.28602 33.658919 5.960631
2006-06-19 07:44:56 51°18.878 2°39.653 16.2818 4.28602 33.658919 5.960631
2006-06-19 07:45:02 51°18.89 2°39.626 16.2839 4.286231 33.665147 5.893212
2006-06-19 07:45:06 51°18.898 2°39.609 16.2771 4.286336 33.6692 5.960631
2006-06-19 07:45:10 51°18.906 2°39.591 16.2752 4.286126 33.671102 5.893212
2006-06-19 07:45:16 51°18.917 2°39.564 16.268 4.285704 33.669901 5.893212
2006-06-19 07:45:21 51°18.927 2°39.542 16.2702 4.286337 33.679211 5.926922
2006-06-19 07:45:26 51°18.937 2°39.519 16.2691 4.286337 33.679211 5.926922
2006-06-19 07:45:32 51°18.949 2°39.493 16.2702 4.286231 33.681415 5.893212
2006-06-19 07:45:36 51°18.957 2°39.476 16.2707 4.28581 33.680841 5.893212
2006-06-19 07:45:41 51°18.968 2°39.453 16.2724 4.285493 33.681819 5.926922
2006-06-19 07:45:46 51°18.978 2°39.432 16.2707 4.285704 33.686803 5.893212
2006-06-19 07:45:51 51°18.988 2°39.409 16.2748 4.284966 33.68345 5.960631
2006-06-19 07:45:56 51°18.998 2°39.387 16.2735 4.284966 33.68345 5.960631
2006-06-19 07:46:01 51°19.008 2°39.365 16.2752 4.28465 33.684429 5.926922
2006-06-19 07:46:06 51°19.017 2°39.343 16.2785 4.284756 33.686608 5.926922
2006-06-19 07:46:12 51°19.029 2°39.315 16.2809 4.284334 33.684155 5.926922
2006-06-19 07:46:16 51°19.036 2°39.297 16.285 4.284545 33.685382 5.893212
2006-06-19 07:46:21 51°19.045 2°39.275 16.2874 4.28465 33.685682 5.960631
2006-06-19 07:46:26 51°19.055 2°39.252 16.2897 4.28465 33.685682 5.960631
2006-06-19 07:46:30 51°19.062 2°39.234 16.2909 4.283912 33.679823 5.926922
2006-06-19 07:46:36 51°19.074 2°39.208 16.295 4.284334 33.68165 5.893212
2006-06-19 07:46:41 51°19.084 2°39.185 16.2923 4.28465 33.68255 5.893212
2006-06-19 07:46:46 51°19.094 2°39.163 16.2931 4.284861 33.683776 5.859503
2006-06-19 07:46:52 51°19.105 2°39.136 16.2913 4.285494 33.685576 5.926922
2006-06-19 07:46:57 51°19.115 2°39.114 16.2902 4.285494 33.685576 5.926922
2006-06-19 07:47:02 51°19.124 2°39.091 16.2871 4.285915 33.686776 5.926922
2006-06-19 07:47:05 51°19.129 2°39.078 16.2876 4.286442 33.688276 5.859503
2006-06-19 07:47:10 51°19.139 2°39.055 16.2828 4.286758 33.689802 5.893212
2006-06-19 07:47:16 51°19.15 2°39.028 16.279 4.286653 33.687624 5.926922
2006-06-19 07:47:22 51°19.161 2°39.001 16.2781 4.28718 33.692881 5.926922
2006-06-19 07:47:26 51°19.168 2°38.983 16.277 4.28718 33.692881 5.926922
2006-06-19 07:47:32 51°19.179 2°38.956 16.2734 4.286969 33.690402 5.893212
2006-06-19 07:47:36 51°19.186 2°38.938 16.274 4.286548 33.687324 5.926922
2006-06-19 07:47:40 51°19.194 2°38.919 16.2678 4.285493 33.680567 5.960631
2006-06-19 07:47:46 51°19.205 2°38.893 16.2704 4.284545 33.674735 5.926922
2006-06-19 07:47:50 51°19.213 2°38.875 16.266 4.283491 33.667351 5.926922
2006-06-19 07:47:57 51°19.227 2°38.844 16.267 4.283491 33.667351 5.926922
2006-06-19 07:48:02 51°19.237 2°38.822 16.2608 4.281804 33.653783 5.926922
2006-06-19 07:48:06 51°19.246 2°38.805 16.2577 4.281382 33.651955 5.960631
2006-06-19 07:48:10 51°19.254 2°38.787 16.2592 4.279696 33.638386 5.960631
2006-06-19 07:48:16 51°19.266 2°38.76 16.2587 4.278852 33.633478 5.994341
2006-06-19 07:48:21 51°19.276 2°38.738 16.2498 4.278114 33.62887 5.994341
2006-06-19 07:48:26 51°19.286 2°38.715 16.251 4.278114 33.62887 5.994341
2006-06-19 07:48:32 51°19.298 2°38.688 16.248 4.277693 33.627667 6.02805
2006-06-19 07:48:36 51°19.306 2°38.67 16.2445 4.276744 33.621831 5.994341
2006-06-19 07:48:41 51°19.316 2°38.648 16.2434 4.276006 33.617848 5.994341
2006-06-19 07:48:46 51°19.326 2°38.625 16.2419 4.27569 33.616945 5.994341
2006-06-19 07:48:52 51°19.339 2°38.598 16.2408 4.27569 33.618821 5.994341
2006-06-19 07:48:56 51°19.347 2°38.58 16.24 4.27569 33.618821 5.994341
2006-06-19 07:49:02 51°19.359 2°38.553 16.2397 4.274425 33.611455 5.994341
2006-06-19 07:49:06 51°19.366 2°38.535 16.2421 4.27453 33.614258 6.02805
2006-06-19 07:49:10 51°19.374 2°38.517 16.2425 4.274214 33.613355 5.994341
2006-06-19 07:49:16 51°19.386 2°38.49 16.2369 4.27453 33.616761 6.02805
2006-06-19 07:49:21 51°19.395 2°38.467 16.2356 4.273582 33.610297 5.994341
2006-06-19 07:49:26 51°19.405 2°38.444 16.2351 4.273582 33.610297 5.994341
2006-06-19 07:49:31 51°19.414 2°38.421 16.2337 4.273793 33.614027 5.994341
2006-06-19 07:49:36 51°19.424 2°38.399 16.2269 4.27432 33.618661 5.960631
2006-06-19 07:49:41 51°19.434 2°38.376 16.2177 4.274003 33.617132 5.960631
2006-06-19 07:49:46 51°19.443 2°38.353 16.2047 4.274003 33.617758 5.994341
2006-06-19 07:49:52 51°19.454 2°38.326 16.1876 4.274741 33.624872 5.960631
2006-06-19 07:49:56 51°19.462 2°38.308 16.1663 4.274741 33.624872 5.960631
2006-06-19 07:50:01 51°19.472 2°38.285 16.1441 4.274952 33.627978 5.926922
2006-06-19 07:50:06 51°19.481 2°38.263 16.1301 4.275163 33.631084 5.960631
2006-06-19 07:50:10 51°19.488 2°38.245 16.1112 4.274741 33.628628 5.926922
2006-06-19 07:50:16 51°19.5 2°38.218 16.0872 4.275163 33.639225 5.960631
2006-06-19 07:50:20 51°19.507 2°38.2 16.0762 4.275269 33.651432 5.926922
2006-06-19 07:50:26 51°19.518 2°38.173 16.0511 4.275269 33.651432 5.926922
2006-06-19 07:50:31 51°19.528 2°38.15 16.0374 4.275269 33.66523 5.960631
2006-06-19 07:50:36 51°19.537 2°38.128 16.033 4.274953 33.678767 5.960631
2006-06-19 07:50:42 51°19.549 2°38.101 16.0291 4.275164 33.698221 5.994341
2006-06-19 07:50:46 51°19.557 2°38.084 16.0105 4.274321 33.705257 6.02805
2006-06-19 07:50:52 51°19.568 2°38.057 15.997 4.274638 33.730717 5.994341
2006-06-19 07:50:56 51°19.576 2°38.04 15.9829 4.274638 33.730717 5.994341
2006-06-19 07:51:01 51°19.586 2°38.018 15.9783 4.273478 33.737509 5.994341
2006-06-19 07:51:06 51°19.597 2°37.997 15.9741 4.272741 33.74614 6.061759
2006-06-19 07:51:10 51°19.605 2°37.979 15.967 4.272108 33.752552 6.02805
2006-06-19 07:51:17 51°19.619 2°37.949 15.9496 4.272214 33.764857 6.02805
2006-06-19 07:51:21 51°19.627 2°37.932 15.9401 4.270949 33.765059 6.02805
2006-06-19 07:51:26 51°19.637 2°37.911 15.9328 4.270949 33.765059 6.02805
2006-06-19 07:51:30 51°19.645 2°37.893 15.9315 4.271371 33.781439 5.994341
2006-06-19 07:51:36 51°19.657 2°37.867 15.9216 4.270212 33.787015 6.061759
2006-06-19 07:51:42 51°19.668 2°37.841 15.9156 4.26979 33.787719 6.061759
2006-06-19 07:51:46 51°19.676 2°37.824 15.9087 4.269474 33.794426 6.095469
2006-06-19 07:51:51 51°19.687 2°37.803 15.9049 4.269052 33.802108 6.095469
2006-06-19 07:51:56 51°19.697 2°37.782 15.9049 4.269052 33.802108 6.095469
2006-06-19 07:52:02 51°19.709 2°37.755 15.9047 4.268631 33.811699 6.095469
2006-06-19 07:52:06 51°19.717 2°37.738 15.8964 4.267893 33.811512 6.095469
2006-06-19 07:52:12 51°19.728 2°37.712 15.8975 4.267366 33.814464 6.095469
2006-06-19 07:52:16 51°19.736 2°37.695 15.896 4.26705 33.816743 6.129178
2006-06-19 07:52:22 51°19.748 2°37.668 15.8968 4.266734 33.821566 6.129178
2006-06-19 07:52:26 51°19.756 2°37.651 15.902 4.266734 33.821566 6.129178
2006-06-19 07:52:32 51°19.768 2°37.625 15.8941 4.265047 33.812974 6.095469
2006-06-19 07:52:36 51°19.776 2°37.608 15.8936 4.26452 33.810209 6.129178
2006-06-19 07:52:41 51°19.786 2°37.588 15.8944 4.263677 33.804005 6.162888
2006-06-19 07:52:46 51°19.796 2°37.569 15.8913 4.263677 33.809725 6.162888
2006-06-19 07:52:52 51°19.807 2°37.548 15.8911 4.263361 33.806286 6.162888
2006-06-19 07:52:56 51°19.813 2°37.534 15.8864 4.263361 33.806286 6.162888
2006-06-19 07:53:01 51°19.822 2°37.519 15.8879 4.262728 33.80068 6.162888
2006-06-19 07:53:06 51°19.83 2°37.505 15.8858 4.26199 33.79668 6.162888
2006-06-19 07:53:12 51°19.838 2°37.489 15.8863 4.26178 33.794811 6.196597
2006-06-19 07:53:16 51°19.844 2°37.479 15.8813 4.261253 33.792681 6.162888
2006-06-19 07:53:22 51°19.852 2°37.464 15.8828 4.261358 33.794251 6.162888
2006-06-19 07:53:26 51°19.857 2°37.455 15.8785 4.261358 33.794251 6.162888
2006-06-19 07:53:32 51°19.864 2°37.443 15.8754 4.261042 33.794624 6.162888
2006-06-19 07:53:36 51°19.868 2°37.435 15.8727 4.261042 33.79526 6.196597
2006-06-19 07:53:42 51°19.875 2°37.423 15.8759 4.260936 33.795596 6.162888
2006-06-19 07:53:46 51°19.879 2°37.415 15.8702 4.261147 33.799372 6.129178
2006-06-19 07:53:51 51°19.884 2°37.406 15.8713 4.260831 33.800383 6.129178
2006-06-19 07:53:56 51°19.89 2°37.397 15.8701 4.260831 33.800383 6.129178
2006-06-19 07:54:01 51°19.895 2°37.389 15.8663 4.26062 33.801692 6.162888
2006-06-19 07:54:06 51°19.9 2°37.381 15.8679 4.260515 33.800121 6.129178
2006-06-19 07:54:10 51°19.904 2°37.375 15.8654 4.260937 33.806405 6.129178
2006-06-19 07:54:16 51°19.91 2°37.366 15.8646 4.260515 33.803937 6.095469
2006-06-19 07:54:21 51°19.915 2°37.359 15.8646 4.259988 33.800534 6.095469
2006-06-19 07:54:26 51°19.92 2°37.352 15.8617 4.259988 33.800534 6.095469
2006-06-19 07:54:31 51°19.925 2°37.346 15.8588 4.26041 33.807454 6.162888
2006-06-19 07:54:36 51°19.929 2°37.339 15.8597 4.260831 33.810558 6.129178
2006-06-19 07:54:42 51°19.935 2°37.332 15.8572 4.26041 33.809999 6.095469
2006-06-19 07:54:46 51°19.939 2°37.326 15.8572 4.260515 33.810934 6.129178
2006-06-19 07:54:50 51°19.942 2°37.322 15.8559 4.26041 33.810635 6.095469
2006-06-19 07:54:56 51°19.948 2°37.314 15.8535 4.26041 33.810635 6.095469
2006-06-19 07:55:01 51°19.952 2°37.308 15.8532 4.260199 33.811947 6.129178
2006-06-19 07:55:06 51°19.956 2°37.302 15.8516 4.259988 33.80944 6.095469
2006-06-19 07:55:12 51°19.961 2°37.294 15.8513 4.260093 33.812921 6.129178
2006-06-19 07:55:16 51°19.965 2°37.29 15.8499 4.259883 33.812959 6.129178
2006-06-19 07:55:21 51°19.969 2°37.284 15.8492 4.259672 33.811725 6.095469
2006-06-19 07:55:26 51°19.973 2°37.278 15.8504 4.259672 33.811725 6.095469
2006-06-19 07:55:32 51°19.978 2°37.271 15.8451 4.259883 33.814232 6.095469
2006-06-19 07:55:36 51°19.981 2°37.267 15.8438 4.260093 33.81674 6.129178
2006-06-19 07:55:41 51°19.985 2°37.261 15.846 4.259988 33.818351 6.129178
2006-06-19 07:55:46 51°19.989 2°37.256 15.8452 4.259672 33.818091 6.095469
2006-06-19 07:55:52 51°19.993 2°37.249 15.8428 4.259461 33.816857 6.129178
2006-06-19 07:55:57 51°19.997 2°37.244 15.8417 4.259461 33.816857 6.129178
2006-06-19 07:56:02 51°20 2°37.238 15.8425 4.259672 33.819365 6.162888
2006-06-19 07:56:06 51°20.003 2°37.234 15.8465 4.259039 33.814388 6.129178
2006-06-19 07:56:11 51°20.007 2°37.228 15.8421 4.259883 33.823783 6.129178
2006-06-19 07:56:17 51°20.011 2°37.222 15.8428 4.259145 33.817871 6.162888
2006-06-19 07:56:22 51°20.015 2°37.217 15.847 4.258829 33.816974 6.162888
2006-06-19 07:56:26 51°20.018 2°37.212 15.8482 4.258829 33.816974 6.162888
2006-06-19 07:56:32 51°20.022 2°37.206 15.8466 4.259461 33.822588 6.162888
2006-06-19 07:56:36 51°20.026 2°37.202 15.8439 4.259145 33.819781 6.196597
2006-06-19 07:56:42 51°20.03 2°37.196 15.8446 4.25904 33.819482 6.162888
2006-06-19 07:56:47 51°20.034 2°37.19 15.844 4.258934 33.81791 6.196597
2006-06-19 07:56:52 51°20.037 2°37.185 15.8417 4.258934 33.819184 6.162888
2006-06-19 07:56:56 51°20.04 2°37.18 15.8426 4.258934 33.819184 6.162888
2006-06-19 07:57:02 51°20.044 2°37.173 15.8412 4.258934 33.81791 6.196597
2006-06-19 07:57:07 51°20.048 2°37.167 15.8361 4.25925 33.82008 6.196597
2006-06-19 07:57:12 51°20.051 2°37.16 15.8399 4.258723 33.816038 6.196597
2006-06-19 07:57:16 51°20.053 2°37.155 15.8426 4.258934 33.81791 6.230306
2006-06-19 07:57:22 51°20.057 2°37.146 15.8361 4.258934 33.818547 6.230306
2006-06-19 07:57:26 51°20.059 2°37.14 15.84 4.258934 33.818547 6.230306
2006-06-19 07:57:32 51°20.062 2°37.131 15.8355 4.258618 33.818287 6.196597
2006-06-19 07:57:36 51°20.064 2°37.125 15.835 4.258196 33.811997 6.230306
2006-06-19 07:57:42 51°20.067 2°37.115 15.8371 4.258618 33.818924 6.196597
2006-06-19 07:57:46 51°20.068 2°37.108 15.8288 4.258723 33.821134 6.230306
2006-06-19 07:57:52 51°20.07 2°37.098 15.8323 4.258618 33.818924 6.264016
2006-06-19 07:57:56 51°20.072 2°37.091 15.8277 4.258618 33.818924 6.264016
2006-06-19 07:58:02 51°20.074 2°37.081 15.8329 4.258723 33.820497 6.264016
2006-06-19 07:58:06 51°20.075 2°37.074 15.8297 4.258723 33.823045 6.230306
2006-06-19 07:58:11 51°20.076 2°37.065 15.83 4.258196 33.819003 6.264016
2006-06-19 07:58:16 51°20.078 2°37.056 15.8277 4.258302 33.819302 6.264016
2006-06-19 07:58:21 51°20.079 2°37.047 15.8288 4.257775 33.815896 6.230306
2006-06-19 07:58:26 51°20.08 2°37.038 15.8237 4.257775 33.815896 6.230306
2006-06-19 07:58:32 51°20.082 2°37.027 15.8259 4.257458 33.815 6.264016
2006-06-19 07:58:36 51°20.082 2°37.02 15.8217 4.257248 33.814402 6.264016
2006-06-19 07:58:42 51°20.083 2°37.009 15.8259 4.257248 33.814402 6.230306
2006-06-19 07:58:46 51°20.083 2°37.002 15.8192 4.257142 33.813466 6.264016
2006-06-19 07:58:52 51°20.083 2°36.991 15.8212 4.257775 33.819719 6.196597
2006-06-19 07:58:56 51°20.083 2°36.984 15.8241 4.257775 33.819719 6.196597
2006-06-19 07:59:02 51°20.083 2°36.974 15.8179 4.258196 33.824737 6.230306
2006-06-19 07:59:06 51°20.082 2°36.967 15.815 4.257353 33.819161 6.230306
2006-06-19 07:59:12 51°20.081 2°36.958 15.8159 4.256826 33.815755 6.230306
2006-06-19 07:59:16 51°20.081 2°36.952 15.8144 4.257353 33.821073 6.196597
2006-06-19 07:59:21 51°20.08 2°36.947 15.8163 4.257142 33.821112 6.196597
2006-06-19 07:59:26 51°20.081 2°36.944 15.8159 4.257142 33.821112 6.196597
2006-06-19 07:59:32 51°20.081 2°36.942 15.8164 4.257037 33.820814 6.196597
2006-06-19 07:59:36 51°20.082 2°36.942 15.814 4.257459 33.824558 6.162888
2006-06-19 07:59:41 51°20.083 2°36.943 15.8168 4.257353 33.825534 6.196597
2006-06-19 07:59:46 51°20.085 2°36.946 15.8171 4.257353 33.827447 6.162888
2006-06-19 07:59:52 51°20.087 2°36.95 15.8141 4.256826 33.822128 6.196597
2006-06-19 07:59:56 51°20.088 2°36.952 15.8155 4.256826 33.822128 6.196597
2006-06-19 08:00:01 51°20.09 2°36.955 15.8168 4.256826 33.823403 6.196597
2006-06-19 08:00:06 51°20.091 2°36.958 15.819 4.257564 33.828682 6.196597